PWSweather.com
Personal Weather Stations
Station Observations
KD5LEN
Ktxnorth1, North Richland Hills, TX 76180

Ktxnorth1North Richland Hills, TX 76180

Lat: 32.885294, Lon: -97.236048

Elevation: 694

Station Type: Vantage Pro 2

http://www.atzer0.net/VWS/root/index.htm

High Low Average
Temperature 62.8°F17.1°C 45.6°F7.6°C 55.8°F13.2°C
Dew Point 54.0°F12.2°C 35.4°F1.9°C 40.2°F4.6°C
Winds 23.0 mph 37.0 kmh 1.0 mph 1.6 kmh 10.0 mph W16.1 kmh W
Wind Gusts 26.0 mph41.8 kmh 4.0 mph6.4 kmh 17.0 mph27.4 kmh
Humidity 74% 44% 56%
Pressure 30.27 in1025.1 mb 29.82 in1009.8 mb -
Precipitation 0.00 in0.0 mm - -
Hour Temp Dew Point Humidity Winds Wind Gusts Pressure Precip Precip Rate Daily Precip Total
12:00 AM 62.8°F17.1°C 54.0°F12.2°C 73% 3.0 mph SW4.8 kmh SW 14.0 mph22.5 kmh 29.82 in1009.8 mb 0.00 in0.0 mm 0.00 in0.0 mm 0.00 in0.0 mm
12:02 AM 62.7°F17.1°C 53.9°F12.2°C 73% 3.0 mph SSW4.8 kmh SSW 14.0 mph22.5 kmh 29.83 in1010.2 mb 0.00 in0.0 mm 0.00 in0.0 mm 0.00 in0.0 mm
12:04 AM 62.6°F17.0°C 53.8°F12.1°C 73% 4.0 mph SW6.4 kmh SW 6.0 mph9.7 kmh 29.82 in1009.8 mb 0.00 in0.0 mm 0.00 in0.0 mm 0.00 in0.0 mm
12:06 AM 62.6°F17.0°C 53.8°F12.1°C 73% 5.0 mph SW8.0 kmh SW 8.0 mph12.9 kmh 29.82 in1009.8 mb 0.00 in0.0 mm 0.00 in0.0 mm 0.00 in0.0 mm
12:08 AM 62.5°F16.9°C 53.7°F12.1°C 73% 2.0 mph SW3.2 kmh SW 8.0 mph12.9 kmh 29.82 in1009.8 mb 0.00 in0.0 mm 0.00 in0.0 mm 0.00 in0.0 mm
12:10 AM 62.5°F16.9°C 53.7°F12.1°C 73% 4.0 mph SW6.4 kmh SW 8.0 mph12.9 kmh 29.82 in1009.8 mb 0.00 in0.0 mm 0.00 in0.0 mm 0.00 in0.0 mm
12:12 AM 62.4°F16.9°C 53.6°F12.0°C 73% 5.0 mph SSW8.0 kmh SSW 8.0 mph12.9 kmh 29.82 in1009.8 mb 0.00 in0.0 mm 0.00 in0.0 mm 0.00 in0.0 mm
12:14 AM 62.4°F16.9°C 53.6°F12.0°C 73% 5.0 mph SSW8.0 kmh SSW 8.0 mph12.9 kmh 29.82 in1009.8 mb 0.00 in0.0 mm 0.00 in0.0 mm 0.00 in0.0 mm
12:16 AM 62.4°F16.9°C 53.6°F12.0°C 73% 4.0 mph SSW6.4 kmh SSW 8.0 mph12.9 kmh 29.82 in1009.8 mb 0.00 in0.0 mm 0.00 in0.0 mm 0.00 in0.0 mm
12:18 AM 62.4°F16.9°C 53.6°F12.0°C 73% 6.0 mph SSW9.7 kmh SSW 8.0 mph12.9 kmh 29.82 in1009.8 mb 0.00 in0.0 mm 0.00 in0.0 mm 0.00 in0.0 mm
12:20 AM 62.3°F16.8°C 53.6°F12.0°C 73% 4.0 mph SW6.4 kmh SW 8.0 mph12.9 kmh 29.82 in1009.8 mb 0.00 in0.0 mm 0.00 in0.0 mm 0.00 in0.0 mm
12:22 AM 62.2°F16.8°C 53.5°F11.9°C 73% 4.0 mph SW6.4 kmh SW 8.0 mph12.9 kmh 29.82 in1009.8 mb 0.00 in0.0 mm 0.00 in0.0 mm 0.00 in0.0 mm
12:24 AM 62.2°F16.8°C 53.5°F11.9°C 73% 2.0 mph SW3.2 kmh SW 8.0 mph12.9 kmh 29.82 in1009.8 mb 0.00 in0.0 mm 0.00 in0.0 mm 0.00 in0.0 mm
12:26 AM 62.1°F16.7°C 53.4°F11.9°C 73% 4.0 mph SW6.4 kmh SW 8.0 mph12.9 kmh 29.82 in1009.8 mb 0.00 in0.0 mm 0.00 in0.0 mm 0.00 in0.0 mm
12:28 AM 62.1°F16.7°C 53.4°F11.9°C 73% 4.0 mph SW6.4 kmh SW 8.0 mph12.9 kmh 29.82 in1009.8 mb 0.00 in0.0 mm 0.00 in0.0 mm 0.00 in0.0 mm
12:30 AM 62.0°F16.7°C 53.3°F11.8°C 73% 5.0 mph SW8.0 kmh SW 8.0 mph12.9 kmh 29.82 in1009.8 mb 0.00 in0.0 mm 0.00 in0.0 mm 0.00 in0.0 mm
12:32 AM 61.9°F16.6°C 53.2°F11.8°C 73% 5.0 mph WSW8.0 kmh WSW 8.0 mph12.9 kmh 29.83 in1010.2 mb 0.00 in0.0 mm 0.00 in0.0 mm 0.00 in0.0 mm
12:34 AM 61.8°F16.6°C 53.1°F11.7°C 73% 7.0 mph SW11.3 kmh SW 8.0 mph12.9 kmh 29.83 in1010.2 mb 0.00 in0.0 mm 0.00 in0.0 mm 0.00 in0.0 mm
12:36 AM 61.6°F16.4°C 52.9°F11.6°C 73% 6.0 mph SW9.7 kmh SW 8.0 mph12.9 kmh 29.83 in1010.2 mb 0.00 in0.0 mm 0.00 in0.0 mm 0.00 in0.0 mm
12:38 AM 61.5°F16.4°C 52.8°F11.6°C 73% 5.0 mph WSW8.0 kmh WSW 8.0 mph12.9 kmh 29.83 in1010.2 mb 0.00 in0.0 mm 0.00 in0.0 mm 0.00 in0.0 mm
12:40 AM 61.4°F16.3°C 53.1°F11.7°C 74% 6.0 mph SW9.7 kmh SW 9.0 mph14.5 kmh 29.83 in1010.2 mb 0.00 in0.0 mm 0.00 in0.0 mm 0.00 in0.0 mm
12:42 AM 61.4°F16.3°C 53.1°F11.7°C 74% 5.0 mph WSW8.0 kmh WSW 9.0 mph14.5 kmh 29.83 in1010.2 mb 0.00 in0.0 mm 0.00 in0.0 mm 0.00 in0.0 mm
12:44 AM 61.3°F16.3°C 53.0°F11.7°C 74% 6.0 mph WSW9.7 kmh WSW 9.0 mph14.5 kmh 29.83 in1010.2 mb 0.00 in0.0 mm 0.00 in0.0 mm 0.00 in0.0 mm
12:46 AM 61.3°F16.3°C 53.0°F11.7°C 74% 5.0 mph WSW8.0 kmh WSW 9.0 mph14.5 kmh 29.83 in1010.2 mb 0.00 in0.0 mm 0.00 in0.0 mm 0.00 in0.0 mm
12:48 AM 61.4°F16.3°C 52.7°F11.5°C 73% 6.0 mph WSW9.7 kmh WSW 9.0 mph14.5 kmh 29.83 in1010.2 mb 0.00 in0.0 mm 0.00 in0.0 mm 0.00 in0.0 mm
12:50 AM 61.4°F16.3°C 52.7°F11.5°C 73% 5.0 mph SW8.0 kmh SW 9.0 mph14.5 kmh 29.83 in1010.2 mb 0.00 in0.0 mm 0.00 in0.0 mm 0.00 in0.0 mm
12:52 AM 61.3°F16.3°C 52.6°F11.4°C 73% 3.0 mph SW4.8 kmh SW 9.0 mph14.5 kmh 29.83 in1010.2 mb 0.00 in0.0 mm 0.00 in0.0 mm 0.00 in0.0 mm
12:54 AM 61.3°F16.3°C 52.6°F11.4°C 73% 4.0 mph WSW6.4 kmh WSW 9.0 mph14.5 kmh 29.83 in1010.2 mb 0.00 in0.0 mm 0.00 in0.0 mm 0.00 in0.0 mm
12:56 AM 61.3°F16.3°C 52.6°F11.4°C 73% 5.0 mph SW8.0 kmh SW 9.0 mph14.5 kmh 29.83 in1010.2 mb 0.00 in0.0 mm 0.00 in0.0 mm 0.00 in0.0 mm
12:58 AM 61.4°F16.3°C 52.3°F11.3°C 72% 9.0 mph SW14.5 kmh SW 9.0 mph14.5 kmh 29.83 in1010.2 mb 0.00 in0.0 mm 0.00 in0.0 mm 0.00 in0.0 mm
01:00 AM 61.5°F16.4°C 52.0°F11.1°C 71% 8.0 mph SW12.9 kmh SW 9.0 mph14.5 kmh 29.83 in1010.2 mb 0.00 in0.0 mm 0.00 in0.0 mm 0.00 in0.0 mm
01:02 AM 61.7°F16.5°C 52.2°F11.2°C 71% 2.0 mph SW3.2 kmh SW 9.0 mph14.5 kmh 29.82 in1009.8 mb 0.00 in0.0 mm 0.00 in0.0 mm 0.00 in0.0 mm
01:04 AM 61.7°F16.5°C 51.4°F10.8°C 69% 4.0 mph SW6.4 kmh SW 9.0 mph14.5 kmh 29.83 in1010.2 mb 0.00 in0.0 mm 0.00 in0.0 mm 0.00 in0.0 mm
01:05 AM 61.8°F16.6°C 51.5°F10.8°C 69% 7.0 mph SSW11.3 kmh SSW 9.0 mph14.5 kmh 29.82 in1009.8 mb 0.00 in0.0 mm 0.00 in0.0 mm 0.00 in0.0 mm
01:08 AM 61.8°F16.6°C 51.5°F10.8°C 69% 4.0 mph SW6.4 kmh SW 9.0 mph14.5 kmh 29.82 in1009.8 mb 0.00 in0.0 mm 0.00 in0.0 mm 0.00 in0.0 mm
01:10 AM 61.8°F16.6°C 51.1°F10.6°C 68% 6.0 mph SSW9.7 kmh SSW 9.0 mph14.5 kmh 29.82 in1009.8 mb 0.00 in0.0 mm 0.00 in0.0 mm 0.00 in0.0 mm
01:12 AM 61.7°F16.5°C 51.0°F10.6°C 68% 7.0 mph SW11.3 kmh SW 9.0 mph14.5 kmh 29.83 in1010.2 mb 0.00 in0.0 mm 0.00 in0.0 mm 0.00 in0.0 mm
01:14 AM 61.6°F16.4°C 51.0°F10.6°C 68% 5.0 mph SW8.0 kmh SW 9.0 mph14.5 kmh 29.82 in1009.8 mb 0.00 in0.0 mm 0.00 in0.0 mm 0.00 in0.0 mm
01:16 AM 61.6°F16.4°C 51.0°F10.6°C 68% 3.0 mph SW4.8 kmh SW 9.0 mph14.5 kmh 29.83 in1010.2 mb 0.00 in0.0 mm 0.00 in0.0 mm 0.00 in0.0 mm
01:18 AM 61.6°F16.4°C 51.0°F10.6°C 68% 6.0 mph WSW9.7 kmh WSW 9.0 mph14.5 kmh 29.83 in1010.2 mb 0.00 in0.0 mm 0.00 in0.0 mm 0.00 in0.0 mm
01:20 AM 61.6°F16.4°C 50.6°F10.3°C 67% 4.0 mph SW6.4 kmh SW 9.0 mph14.5 kmh 29.83 in1010.2 mb 0.00 in0.0 mm 0.00 in0.0 mm 0.00 in0.0 mm
01:22 AM 61.6°F16.4°C 50.6°F10.3°C 67% 5.0 mph WSW8.0 kmh WSW 9.0 mph14.5 kmh 29.83 in1010.2 mb 0.00 in0.0 mm 0.00 in0.0 mm 0.00 in0.0 mm
01:24 AM 61.6°F16.4°C 50.6°F10.3°C 67% 6.0 mph WSW9.7 kmh WSW 9.0 mph14.5 kmh 29.84 in1010.5 mb 0.00 in0.0 mm 0.00 in0.0 mm 0.00 in0.0 mm
01:26 AM 61.6°F16.4°C 50.1°F10.1°C 66% 8.0 mph WSW12.9 kmh WSW 9.0 mph14.5 kmh 29.84 in1010.5 mb 0.00 in0.0 mm 0.00 in0.0 mm 0.00 in0.0 mm
01:28 AM 61.6°F16.4°C 49.3°F9.6°C 64% 9.0 mph WSW14.5 kmh WSW 11.0 mph17.7 kmh 29.84 in1010.5 mb 0.00 in0.0 mm 0.00 in0.0 mm 0.00 in0.0 mm
01:30 AM 61.7°F16.5°C 49.0°F9.4°C 63% 3.0 mph WSW4.8 kmh WSW 11.0 mph17.7 kmh 29.84 in1010.5 mb 0.00 in0.0 mm 0.00 in0.0 mm 0.00 in0.0 mm
01:32 AM 61.8°F16.6°C 48.2°F9.0°C 61% 8.0 mph WSW12.9 kmh WSW 11.0 mph17.7 kmh 29.84 in1010.5 mb 0.00 in0.0 mm 0.00 in0.0 mm 0.00 in0.0 mm
01:34 AM 61.9°F16.6°C 47.4°F8.6°C 59% 10.0 mph SW16.1 kmh SW 12.0 mph19.3 kmh 29.84 in1010.5 mb 0.00 in0.0 mm 0.00 in0.0 mm 0.00 in0.0 mm
01:36 AM 62.0°F16.7°C 47.1°F8.4°C 58% 9.0 mph WSW14.5 kmh WSW 12.0 mph19.3 kmh 29.84 in1010.5 mb 0.00 in0.0 mm 0.00 in0.0 mm 0.00 in0.0 mm
01:38 AM 62.1°F16.7°C 46.7°F8.2°C 57% 5.0 mph WSW8.0 kmh WSW 12.0 mph19.3 kmh 29.84 in1010.5 mb 0.00 in0.0 mm 0.00 in0.0 mm 0.00 in0.0 mm
01:40 AM 62.2°F16.8°C 45.9°F7.7°C 55% 4.0 mph W6.4 kmh W 12.0 mph19.3 kmh 29.84 in1010.5 mb 0.00 in0.0 mm 0.00 in0.0 mm 0.00 in0.0 mm
01:42 AM 62.3°F16.8°C 45.5°F7.5°C 54% 5.0 mph SW8.0 kmh SW 12.0 mph19.3 kmh 29.84 in1010.5 mb 0.00 in0.0 mm 0.00 in0.0 mm 0.00 in0.0 mm
01:44 AM 62.4°F16.9°C 44.6°F7.0°C 52% 8.0 mph WSW12.9 kmh WSW 12.0 mph19.3 kmh 29.84 in1010.5 mb 0.00 in0.0 mm 0.00 in0.0 mm 0.00 in0.0 mm
01:46 AM 62.6°F17.0°C 44.2°F6.8°C 51% 9.0 mph W14.5 kmh W 17.0 mph27.4 kmh 29.84 in1010.5 mb 0.00 in0.0 mm 0.00 in0.0 mm 0.00 in0.0 mm
01:48 AM 62.8°F17.1°C 44.4°F6.9°C 51% 8.0 mph WSW12.9 kmh WSW 17.0 mph27.4 kmh 29.84 in1010.5 mb 0.00 in0.0 mm 0.00 in0.0 mm 0.00 in0.0 mm
01:50 AM 62.7°F17.1°C 43.8°F6.6°C 50% 11.0 mph W17.7 kmh W 17.0 mph27.4 kmh 29.84 in1010.5 mb 0.00 in0.0 mm 0.00 in0.0 mm 0.00 in0.0 mm
01:52 AM 62.7°F17.1°C 43.8°F6.6°C 50% 6.0 mph W9.7 kmh W 17.0 mph27.4 kmh 29.84 in1010.5 mb 0.00 in0.0 mm 0.00 in0.0 mm 0.00 in0.0 mm
01:53 AM 62.6°F17.0°C 43.7°F6.5°C 50% 5.0 mph WSW8.0 kmh WSW 17.0 mph27.4 kmh 29.85 in1010.8 mb 0.00 in0.0 mm 0.00 in0.0 mm 0.00 in0.0 mm
01:56 AM 62.6°F17.0°C 43.7°F6.5°C 50% 7.0 mph W11.3 kmh W 17.0 mph27.4 kmh 29.85 in1010.8 mb 0.00 in0.0 mm 0.00 in0.0 mm 0.00 in0.0 mm
01:58 AM 62.4°F16.9°C 43.5°F6.4°C 50% 8.0 mph WSW12.9 kmh WSW 17.0 mph27.4 kmh 29.85 in1010.8 mb 0.00 in0.0 mm 0.00 in0.0 mm 0.00 in0.0 mm
02:00 AM 62.4°F16.9°C 43.0°F6.1°C 49% 11.0 mph W17.7 kmh W 17.0 mph27.4 kmh 29.85 in1010.8 mb 0.00 in0.0 mm 0.00 in0.0 mm 0.00 in0.0 mm
02:02 AM 62.4°F16.9°C 43.0°F6.1°C 49% 9.0 mph W14.5 kmh W 17.0 mph27.4 kmh 29.85 in1010.8 mb 0.00 in0.0 mm 0.00 in0.0 mm 0.00 in0.0 mm
02:04 AM 62.4°F16.9°C 43.0°F6.1°C 49% 11.0 mph W17.7 kmh W 15.0 mph24.1 kmh 29.85 in1010.8 mb 0.00 in0.0 mm 0.00 in0.0 mm 0.00 in0.0 mm
02:06 AM 62.4°F16.9°C 43.0°F6.1°C 49% 13.0 mph W20.9 kmh W 15.0 mph24.1 kmh 29.85 in1010.8 mb 0.00 in0.0 mm 0.00 in0.0 mm 0.00 in0.0 mm
02:08 AM 62.3°F16.8°C 42.9°F6.1°C 49% 12.0 mph WNW19.3 kmh WNW 15.0 mph24.1 kmh 29.85 in1010.8 mb 0.00 in0.0 mm 0.00 in0.0 mm 0.00 in0.0 mm
02:10 AM 62.1°F16.7°C 42.7°F5.9°C 49% 9.0 mph WNW14.5 kmh WNW 15.0 mph24.1 kmh 29.85 in1010.8 mb 0.00 in0.0 mm 0.00 in0.0 mm 0.00 in0.0 mm
02:12 AM 62.0°F16.7°C 42.6°F5.9°C 49% 9.0 mph W14.5 kmh W 15.0 mph24.1 kmh 29.86 in1011.2 mb 0.00 in0.0 mm 0.00 in0.0 mm 0.00 in0.0 mm
02:14 AM 61.8°F16.6°C 42.5°F5.8°C 49% 11.0 mph WSW17.7 kmh WSW 17.0 mph27.4 kmh 29.86 in1011.2 mb 0.00 in0.0 mm 0.00 in0.0 mm 0.00 in0.0 mm
02:16 AM 61.6°F16.4°C 42.3°F5.7°C 49% 12.0 mph N19.3 kmh N 17.0 mph27.4 kmh 29.87 in1011.5 mb 0.00 in0.0 mm 0.00 in0.0 mm 0.00 in0.0 mm
02:18 AM 61.5°F16.4°C 42.2°F5.7°C 49% 10.0 mph WNW16.1 kmh WNW 17.0 mph27.4 kmh 29.87 in1011.5 mb 0.00 in0.0 mm 0.00 in0.0 mm 0.00 in0.0 mm
02:20 AM 61.2°F16.2°C 42.4°F5.8°C 50% 16.0 mph WSW25.7 kmh WSW 22.0 mph35.4 kmh 29.87 in1011.5 mb 0.00 in0.0 mm 0.00 in0.0 mm 0.00 in0.0 mm
02:22 AM 60.9°F16.1°C 42.2°F5.7°C 50% 12.0 mph NW19.3 kmh NW 24.0 mph38.6 kmh 29.88 in1011.9 mb 0.00 in0.0 mm 0.00 in0.0 mm 0.00 in0.0 mm
02:24 AM 60.6°F15.9°C 41.9°F5.5°C 50% 13.0 mph W20.9 kmh W 24.0 mph38.6 kmh 29.88 in1011.9 mb 0.00 in0.0 mm 0.00 in0.0 mm 0.00 in0.0 mm
02:26 AM 60.2°F15.7°C 42.5°F5.8°C 52% 16.0 mph WNW25.7 kmh WNW 24.0 mph38.6 kmh 29.88 in1011.9 mb 0.00 in0.0 mm 0.00 in0.0 mm 0.00 in0.0 mm
02:28 AM 59.9°F15.5°C 42.7°F5.9°C 53% 10.0 mph NW16.1 kmh NW 24.0 mph38.6 kmh 29.88 in1011.9 mb 0.00 in0.0 mm 0.00 in0.0 mm 0.00 in0.0 mm
02:30 AM 59.4°F15.2°C 42.3°F5.7°C 53% 19.0 mph WNW30.6 kmh WNW 24.0 mph38.6 kmh 29.88 in1011.9 mb 0.00 in0.0 mm 0.00 in0.0 mm 0.00 in0.0 mm
02:32 AM 59.1°F15.1°C 43.0°F6.1°C 55% 18.0 mph NW29.0 kmh NW 24.0 mph38.6 kmh 29.88 in1011.9 mb 0.00 in0.0 mm 0.00 in0.0 mm 0.00 in0.0 mm
02:34 AM 58.7°F14.8°C 42.6°F5.9°C 55% 21.0 mph WNW33.8 kmh WNW 21.0 mph33.8 kmh 29.88 in1011.9 mb 0.00 in0.0 mm 0.00 in0.0 mm 0.00 in0.0 mm
02:36 AM 58.5°F14.7°C 42.9°F6.1°C 56% 11.0 mph NW17.7 kmh NW 23.0 mph37.0 kmh 29.89 in1012.2 mb 0.00 in0.0 mm 0.00 in0.0 mm 0.00 in0.0 mm
02:38 AM 58.1°F14.5°C 42.5°F5.8°C 56% 13.0 mph NW20.9 kmh NW 23.0 mph37.0 kmh 29.89 in1012.2 mb 0.00 in0.0 mm 0.00 in0.0 mm 0.00 in0.0 mm
02:40 AM 58.0°F14.4°C 42.9°F6.1°C 57% 10.0 mph W16.1 kmh W 24.0 mph38.6 kmh 29.89 in1012.2 mb 0.00 in0.0 mm 0.00 in0.0 mm 0.00 in0.0 mm
02:42 AM 57.8°F14.3°C 42.7°F5.9°C 57% 21.0 mph NW33.8 kmh NW 24.0 mph38.6 kmh 29.89 in1012.2 mb 0.00 in0.0 mm 0.00 in0.0 mm 0.00 in0.0 mm
02:44 AM 57.7°F14.3°C 42.6°F5.9°C 57% 19.0 mph NW30.6 kmh NW 24.0 mph38.6 kmh 29.89 in1012.2 mb 0.00 in0.0 mm 0.00 in0.0 mm 0.00 in0.0 mm
02:46 AM 57.6°F14.2°C 43.0°F6.1°C 58% 15.0 mph NW24.1 kmh NW 24.0 mph38.6 kmh 29.89 in1012.2 mb 0.00 in0.0 mm 0.00 in0.0 mm 0.00 in0.0 mm
02:48 AM 57.4°F14.1°C 42.8°F6.0°C 58% 12.0 mph W19.3 kmh W 24.0 mph38.6 kmh 29.89 in1012.2 mb 0.00 in0.0 mm 0.00 in0.0 mm 0.00 in0.0 mm
02:50 AM 57.4°F14.1°C 42.8°F6.0°C 58% 12.0 mph WNW19.3 kmh WNW 24.0 mph38.6 kmh 29.89 in1012.2 mb 0.00 in0.0 mm 0.00 in0.0 mm 0.00 in0.0 mm
02:52 AM 57.2°F14.0°C 42.6°F5.9°C 58% 13.0 mph NW20.9 kmh NW 24.0 mph38.6 kmh 29.90 in1012.5 mb 0.00 in0.0 mm 0.00 in0.0 mm 0.00 in0.0 mm
02:54 AM 57.2°F14.0°C 42.6°F5.9°C 58% 10.0 mph W16.1 kmh W 24.0 mph38.6 kmh 29.90 in1012.5 mb 0.00 in0.0 mm 0.00 in0.0 mm 0.00 in0.0 mm
02:56 AM 57.1°F13.9°C 42.9°F6.1°C 59% 14.0 mph WNW22.5 kmh WNW 24.0 mph38.6 kmh 29.90 in1012.5 mb 0.00 in0.0 mm 0.00 in0.0 mm 0.00 in0.0 mm
02:58 AM 57.0°F13.9°C 42.8°F6.0°C 59% 11.0 mph NW17.7 kmh NW 24.0 mph38.6 kmh 29.90 in1012.5 mb 0.00 in0.0 mm 0.00 in0.0 mm 0.00 in0.0 mm
03:00 AM 57.0°F13.9°C 42.8°F6.0°C 59% 16.0 mph WNW25.7 kmh WNW 24.0 mph38.6 kmh 29.90 in1012.5 mb 0.00 in0.0 mm 0.00 in0.0 mm 0.00 in0.0 mm
03:02 AM 56.9°F13.8°C 42.7°F5.9°C 59% 12.0 mph W19.3 kmh W 24.0 mph38.6 kmh 29.90 in1012.5 mb 0.00 in0.0 mm 0.00 in0.0 mm 0.00 in0.0 mm
03:04 AM 56.8°F13.8°C 42.6°F5.9°C 59% 14.0 mph W22.5 kmh W 14.0 mph22.5 kmh 29.90 in1012.5 mb 0.00 in0.0 mm 0.00 in0.0 mm 0.00 in0.0 mm
03:06 AM 56.7°F13.7°C 42.6°F5.9°C 59% 11.0 mph WNW17.7 kmh WNW 17.0 mph27.4 kmh 29.90 in1012.5 mb 0.00 in0.0 mm 0.00 in0.0 mm 0.00 in0.0 mm
03:08 AM 56.6°F13.7°C 42.5°F5.8°C 59% 14.0 mph WNW22.5 kmh WNW 17.0 mph27.4 kmh 29.90 in1012.5 mb 0.00 in0.0 mm 0.00 in0.0 mm 0.00 in0.0 mm
03:10 AM 56.6°F13.7°C 42.5°F5.8°C 59% 14.0 mph NW22.5 kmh NW 20.0 mph32.2 kmh 29.91 in1012.9 mb 0.00 in0.0 mm 0.00 in0.0 mm 0.00 in0.0 mm
03:12 AM 56.4°F13.6°C 42.7°F5.9°C 60% 15.0 mph NW24.1 kmh NW 20.0 mph32.2 kmh 29.91 in1012.9 mb 0.00 in0.0 mm 0.00 in0.0 mm 0.00 in0.0 mm
03:14 AM 56.4°F13.6°C 42.7°F5.9°C 60% 13.0 mph W20.9 kmh W 20.0 mph32.2 kmh 29.91 in1012.9 mb 0.00 in0.0 mm 0.00 in0.0 mm 0.00 in0.0 mm
03:16 AM 56.3°F13.5°C 42.6°F5.9°C 60% 10.0 mph WNW16.1 kmh WNW 20.0 mph32.2 kmh 29.91 in1012.9 mb 0.00 in0.0 mm 0.00 in0.0 mm 0.00 in0.0 mm
03:18 AM 56.2°F13.4°C 42.5°F5.8°C 60% 13.0 mph NW20.9 kmh NW 20.0 mph32.2 kmh 29.91 in1012.9 mb 0.00 in0.0 mm 0.00 in0.0 mm 0.00 in0.0 mm
03:20 AM 56.2°F13.4°C 42.5°F5.8°C 60% 9.0 mph W14.5 kmh W 20.0 mph32.2 kmh 29.91 in1012.9 mb 0.00 in0.0 mm 0.00 in0.0 mm 0.00 in0.0 mm
03:22 AM 56.1°F13.4°C 42.4°F5.8°C 60% 14.0 mph WSW22.5 kmh WSW 20.0 mph32.2 kmh 29.91 in1012.9 mb 0.00 in0.0 mm 0.00 in0.0 mm 0.00 in0.0 mm
03:24 AM 56.1°F13.4°C 42.4°F5.8°C 60% 14.0 mph WNW22.5 kmh WNW 20.0 mph32.2 kmh 29.91 in1012.9 mb 0.00 in0.0 mm 0.00 in0.0 mm 0.00 in0.0 mm
03:26 AM 56.0°F13.3°C 42.3°F5.7°C 60% 10.0 mph WNW16.1 kmh WNW 20.0 mph32.2 kmh 29.91 in1012.9 mb 0.00 in0.0 mm 0.00 in0.0 mm 0.00 in0.0 mm
03:28 AM 55.9°F13.3°C 42.2°F5.7°C 60% 13.0 mph WNW20.9 kmh WNW 20.0 mph32.2 kmh 29.91 in1012.9 mb 0.00 in0.0 mm 0.00 in0.0 mm 0.00 in0.0 mm
03:30 AM 55.9°F13.3°C 42.2°F5.7°C 60% 9.0 mph WSW14.5 kmh WSW 20.0 mph32.2 kmh 29.92 in1013.2 mb 0.00 in0.0 mm 0.00 in0.0 mm 0.00 in0.0 mm
03:32 AM 55.8°F13.2°C 42.1°F5.6°C 60% 14.0 mph NW22.5 kmh NW 20.0 mph32.2 kmh 29.92 in1013.2 mb 0.00 in0.0 mm 0.00 in0.0 mm 0.00 in0.0 mm
03:34 AM 55.7°F13.2°C 42.0°F5.6°C 60% 17.0 mph WNW27.4 kmh WNW 17.0 mph27.4 kmh 29.92 in1013.2 mb 0.00 in0.0 mm 0.00 in0.0 mm 0.00 in0.0 mm
03:36 AM 55.7°F13.2°C 42.0°F5.6°C 60% 9.0 mph WNW14.5 kmh WNW 17.0 mph27.4 kmh 29.92 in1013.2 mb 0.00 in0.0 mm 0.00 in0.0 mm 0.00 in0.0 mm
03:38 AM 55.6°F13.1°C 42.0°F5.6°C 60% 9.0 mph NW14.5 kmh NW 17.0 mph27.4 kmh 29.92 in1013.2 mb 0.00 in0.0 mm 0.00 in0.0 mm 0.00 in0.0 mm
03:40 AM 55.5°F13.1°C 41.9°F5.5°C 60% 16.0 mph NW25.7 kmh NW 17.0 mph27.4 kmh 29.92 in1013.2 mb 0.00 in0.0 mm 0.00 in0.0 mm 0.00 in0.0 mm
03:42 AM 55.6°F13.1°C 42.0°F5.6°C 60% 11.0 mph WNW17.7 kmh WNW 19.0 mph30.6 kmh 29.92 in1013.2 mb 0.00 in0.0 mm 0.00 in0.0 mm 0.00 in0.0 mm
03:44 AM 55.6°F13.1°C 42.0°F5.6°C 60% 9.0 mph NW14.5 kmh NW 19.0 mph30.6 kmh 29.93 in1013.5 mb 0.00 in0.0 mm 0.00 in0.0 mm 0.00 in0.0 mm
03:46 AM 55.5°F13.1°C 41.9°F5.5°C 60% 12.0 mph W19.3 kmh W 19.0 mph30.6 kmh 29.93 in1013.5 mb 0.00 in0.0 mm 0.00 in0.0 mm 0.00 in0.0 mm
03:48 AM 55.6°F13.1°C 42.0°F5.6°C 60% 15.0 mph NW24.1 kmh NW 19.0 mph30.6 kmh 29.93 in1013.5 mb 0.00 in0.0 mm 0.00 in0.0 mm 0.00 in0.0 mm
03:50 AM 55.6°F13.1°C 42.0°F5.6°C 60% 13.0 mph NW20.9 kmh NW 19.0 mph30.6 kmh 29.93 in1013.5 mb 0.00 in0.0 mm 0.00 in0.0 mm 0.00 in0.0 mm
03:52 AM 55.6°F13.1°C 42.0°F5.6°C 60% 11.0 mph WNW17.7 kmh WNW 19.0 mph30.6 kmh 29.93 in1013.5 mb 0.00 in0.0 mm 0.00 in0.0 mm 0.00 in0.0 mm
03:54 AM 55.6°F13.1°C 42.0°F5.6°C 60% 17.0 mph NW27.4 kmh NW 22.0 mph35.4 kmh 29.93 in1013.5 mb 0.00 in0.0 mm 0.00 in0.0 mm 0.00 in0.0 mm
03:56 AM 55.6°F13.1°C 41.5°F5.3°C 59% 9.0 mph W14.5 kmh W 22.0 mph35.4 kmh 29.94 in1013.9 mb 0.00 in0.0 mm 0.00 in0.0 mm 0.00 in0.0 mm
03:58 AM 55.7°F13.2°C 41.6°F5.3°C 59% 14.0 mph WNW22.5 kmh WNW 22.0 mph35.4 kmh 29.94 in1013.9 mb 0.00 in0.0 mm 0.00 in0.0 mm 0.00 in0.0 mm
04:00 AM 55.7°F13.2°C 41.6°F5.3°C 59% 13.0 mph W20.9 kmh W 22.0 mph35.4 kmh 29.94 in1013.9 mb 0.00 in0.0 mm 0.00 in0.0 mm 0.00 in0.0 mm
04:02 AM 55.7°F13.2°C 41.6°F5.3°C 59% 17.0 mph WNW27.4 kmh WNW 22.0 mph35.4 kmh 29.94 in1013.9 mb 0.00 in0.0 mm 0.00 in0.0 mm 0.00 in0.0 mm
04:04 AM 55.7°F13.2°C 41.6°F5.3°C 59% 16.0 mph W25.7 kmh W 20.0 mph32.2 kmh 29.94 in1013.9 mb 0.00 in0.0 mm 0.00 in0.0 mm 0.00 in0.0 mm
04:06 AM 55.8°F13.2°C 41.7°F5.4°C 59% 13.0 mph W20.9 kmh W 24.0 mph38.6 kmh 29.94 in1013.9 mb 0.00 in0.0 mm 0.00 in0.0 mm 0.00 in0.0 mm
04:08 AM 55.9°F13.3°C 41.8°F5.4°C 59% 17.0 mph WNW27.4 kmh WNW 24.0 mph38.6 kmh 29.94 in1013.9 mb 0.00 in0.0 mm 0.00 in0.0 mm 0.00 in0.0 mm
04:10 AM 55.8°F13.2°C 41.7°F5.4°C 59% 16.0 mph WNW25.7 kmh WNW 24.0 mph38.6 kmh 29.94 in1013.9 mb 0.00 in0.0 mm 0.00 in0.0 mm 0.00 in0.0 mm
04:12 AM 55.8°F13.2°C 41.7°F5.4°C 59% 16.0 mph WNW25.7 kmh WNW 24.0 mph38.6 kmh 29.94 in1013.9 mb 0.00 in0.0 mm 0.00 in0.0 mm 0.00 in0.0 mm
04:14 AM 55.8°F13.2°C 41.7°F5.4°C 59% 14.0 mph NW22.5 kmh NW 24.0 mph38.6 kmh 29.94 in1013.9 mb 0.00 in0.0 mm 0.00 in0.0 mm 0.00 in0.0 mm
04:16 AM 55.7°F13.2°C 41.6°F5.3°C 59% 14.0 mph WNW22.5 kmh WNW 24.0 mph38.6 kmh 29.94 in1013.9 mb 0.00 in0.0 mm 0.00 in0.0 mm 0.00 in0.0 mm
04:18 AM 55.6°F13.1°C 41.5°F5.3°C 59% 11.0 mph NW17.7 kmh NW 24.0 mph38.6 kmh 29.94 in1013.9 mb 0.00 in0.0 mm 0.00 in0.0 mm 0.00 in0.0 mm
04:20 AM 55.7°F13.2°C 41.6°F5.3°C 59% 13.0 mph W20.9 kmh W 24.0 mph38.6 kmh 29.94 in1013.9 mb 0.00 in0.0 mm 0.00 in0.0 mm 0.00 in0.0 mm
04:22 AM 55.6°F13.1°C 41.5°F5.3°C 59% 9.0 mph WNW14.5 kmh WNW 24.0 mph38.6 kmh 29.94 in1013.9 mb 0.00 in0.0 mm 0.00 in0.0 mm 0.00 in0.0 mm
04:24 AM 55.5°F13.1°C 41.4°F5.2°C 59% 14.0 mph NW22.5 kmh NW 24.0 mph38.6 kmh 29.94 in1013.9 mb 0.00 in0.0 mm 0.00 in0.0 mm 0.00 in0.0 mm
04:26 AM 55.5°F13.1°C 41.4°F5.2°C 59% 8.0 mph WSW12.9 kmh WSW 24.0 mph38.6 kmh 29.94 in1013.9 mb 0.00 in0.0 mm 0.00 in0.0 mm 0.00 in0.0 mm
04:28 AM 55.5°F13.1°C 41.4°F5.2°C 59% 14.0 mph NW22.5 kmh NW 24.0 mph38.6 kmh 29.95 in1014.2 mb 0.00 in0.0 mm 0.00 in0.0 mm 0.00 in0.0 mm
04:30 AM 55.4°F13.0°C 41.3°F5.2°C 59% 14.0 mph NW22.5 kmh NW 24.0 mph38.6 kmh 29.95 in1014.2 mb 0.00 in0.0 mm 0.00 in0.0 mm 0.00 in0.0 mm
04:31 AM 55.4°F13.0°C 41.3°F5.2°C 59% 11.0 mph WNW17.7 kmh WNW 24.0 mph38.6 kmh 29.95 in1014.2 mb 0.00 in0.0 mm 0.00 in0.0 mm 0.00 in0.0 mm
04:34 AM 55.3°F12.9°C 41.2°F5.1°C 59% 7.0 mph NW11.3 kmh NW 15.0 mph24.1 kmh 29.95 in1014.2 mb 0.00 in0.0 mm 0.00 in0.0 mm 0.00 in0.0 mm
04:36 AM 55.2°F12.9°C 41.1°F5.1°C 59% 11.0 mph WNW17.7 kmh WNW 17.0 mph27.4 kmh 29.95 in1014.2 mb 0.00 in0.0 mm 0.00 in0.0 mm 0.00 in0.0 mm
04:38 AM 55.2°F12.9°C 41.6°F5.3°C 60% 11.0 mph WNW17.7 kmh WNW 17.0 mph27.4 kmh 29.95 in1014.2 mb 0.00 in0.0 mm 0.00 in0.0 mm 0.00 in0.0 mm
04:40 AM 55.1°F12.8°C 41.5°F5.3°C 60% 14.0 mph NW22.5 kmh NW 17.0 mph27.4 kmh 29.95 in1014.2 mb 0.00 in0.0 mm 0.00 in0.0 mm 0.00 in0.0 mm
04:42 AM 55.2°F12.9°C 41.6°F5.3°C 60% 12.0 mph NW19.3 kmh NW 17.0 mph27.4 kmh 29.95 in1014.2 mb 0.00 in0.0 mm 0.00 in0.0 mm 0.00 in0.0 mm
04:44 AM 55.0°F12.8°C 41.4°F5.2°C 60% 14.0 mph WNW22.5 kmh WNW 17.0 mph27.4 kmh 29.95 in1014.2 mb 0.00 in0.0 mm 0.00 in0.0 mm 0.00 in0.0 mm
04:46 AM 55.0°F12.8°C 41.4°F5.2°C 60% 15.0 mph WNW24.1 kmh WNW 19.0 mph30.6 kmh 29.95 in1014.2 mb 0.00 in0.0 mm 0.00 in0.0 mm 0.00 in0.0 mm
04:48 AM 55.0°F12.8°C 41.4°F5.2°C 60% 17.0 mph NW27.4 kmh NW 19.0 mph30.6 kmh 29.96 in1014.6 mb 0.00 in0.0 mm 0.00 in0.0 mm 0.00 in0.0 mm
04:50 AM 54.9°F12.7°C 41.3°F5.2°C 60% 14.0 mph NW22.5 kmh NW 19.0 mph30.6 kmh 29.96 in1014.6 mb 0.00 in0.0 mm 0.00 in0.0 mm 0.00 in0.0 mm
04:52 AM 54.9°F12.7°C 41.3°F5.2°C 60% 7.0 mph NW11.3 kmh NW 21.0 mph33.8 kmh 29.96 in1014.6 mb 0.00 in0.0 mm 0.00 in0.0 mm 0.00 in0.0 mm
04:54 AM 54.8°F12.7°C 41.6°F5.3°C 61% 11.0 mph NW17.7 kmh NW 21.0 mph33.8 kmh 29.96 in1014.6 mb 0.00 in0.0 mm 0.00 in0.0 mm 0.00 in0.0 mm
04:56 AM 54.8°F12.7°C 41.2°F5.1°C 60% 14.0 mph NW22.5 kmh NW 21.0 mph33.8 kmh 29.96 in1014.6 mb 0.00 in0.0 mm 0.00 in0.0 mm 0.00 in0.0 mm
04:58 AM 54.7°F12.6°C 41.5°F5.3°C 61% 11.0 mph NW17.7 kmh NW 21.0 mph33.8 kmh 29.96 in1014.6 mb 0.00 in0.0 mm 0.00 in0.0 mm 0.00 in0.0 mm
04:59 AM 54.7°F12.6°C 41.5°F5.3°C 61% 5.0 mph NW8.0 kmh NW 21.0 mph33.8 kmh 29.96 in1014.6 mb 0.00 in0.0 mm 0.00 in0.0 mm 0.00 in0.0 mm
05:02 AM 54.7°F12.6°C 41.5°F5.3°C 61% 14.0 mph NW22.5 kmh NW 21.0 mph33.8 kmh 29.97 in1014.9 mb 0.00 in0.0 mm 0.00 in0.0 mm 0.00 in0.0 mm
05:04 AM 54.7°F12.6°C 41.5°F5.3°C 61% 15.0 mph NW24.1 kmh NW 20.0 mph32.2 kmh 29.97 in1014.9 mb 0.00 in0.0 mm 0.00 in0.0 mm 0.00 in0.0 mm
05:06 AM 54.7°F12.6°C 41.5°F5.3°C 61% 13.0 mph NW20.9 kmh NW 21.0 mph33.8 kmh 29.96 in1014.6 mb 0.00 in0.0 mm 0.00 in0.0 mm 0.00 in0.0 mm
05:08 AM 54.7°F12.6°C 41.5°F5.3°C 61% 12.0 mph NW19.3 kmh NW 21.0 mph33.8 kmh 29.96 in1014.6 mb 0.00 in0.0 mm 0.00 in0.0 mm 0.00 in0.0 mm
05:10 AM 54.7°F12.6°C 41.5°F5.3°C 61% 14.0 mph NW22.5 kmh NW 21.0 mph33.8 kmh 29.96 in1014.6 mb 0.00 in0.0 mm 0.00 in0.0 mm 0.00 in0.0 mm
05:12 AM 54.6°F12.6°C 41.4°F5.2°C 61% 11.0 mph NW17.7 kmh NW 21.0 mph33.8 kmh 29.96 in1014.6 mb 0.00 in0.0 mm 0.00 in0.0 mm 0.00 in0.0 mm
05:14 AM 54.5°F12.5°C 41.3°F5.2°C 61% 11.0 mph WNW17.7 kmh WNW 21.0 mph33.8 kmh 29.96 in1014.6 mb 0.00 in0.0 mm 0.00 in0.0 mm 0.00 in0.0 mm
05:16 AM 54.5°F12.5°C 41.3°F5.2°C 61% 5.0 mph NW8.0 kmh NW 21.0 mph33.8 kmh 29.97 in1014.9 mb 0.00 in0.0 mm 0.00 in0.0 mm 0.00 in0.0 mm
05:18 AM 54.5°F12.5°C 41.3°F5.2°C 61% 12.0 mph WNW19.3 kmh WNW 21.0 mph33.8 kmh 29.97 in1014.9 mb 0.00 in0.0 mm 0.00 in0.0 mm 0.00 in0.0 mm
05:20 AM 54.4°F12.4°C 41.3°F5.2°C 61% 16.0 mph NW25.7 kmh NW 21.0 mph33.8 kmh 29.96 in1014.6 mb 0.00 in0.0 mm 0.00 in0.0 mm 0.00 in0.0 mm
05:22 AM 54.4°F12.4°C 41.3°F5.2°C 61% 12.0 mph NW19.3 kmh NW 21.0 mph33.8 kmh 29.97 in1014.9 mb 0.00 in0.0 mm 0.00 in0.0 mm 0.00 in0.0 mm
05:24 AM 54.3°F12.4°C 41.2°F5.1°C 61% 15.0 mph WNW24.1 kmh WNW 21.0 mph33.8 kmh 29.97 in1014.9 mb 0.00 in0.0 mm 0.00 in0.0 mm 0.00 in0.0 mm
05:26 AM 54.3°F12.4°C 41.6°F5.3°C 62% 9.0 mph NW14.5 kmh NW 21.0 mph33.8 kmh 29.97 in1014.9 mb 0.00 in0.0 mm 0.00 in0.0 mm 0.00 in0.0 mm
05:28 AM 54.3°F12.4°C 41.2°F5.1°C 61% 14.0 mph NW22.5 kmh NW 21.0 mph33.8 kmh 29.97 in1014.9 mb 0.00 in0.0 mm 0.00 in0.0 mm 0.00 in0.0 mm
05:30 AM 54.2°F12.3°C 41.5°F5.3°C 62% 12.0 mph NW19.3 kmh NW 21.0 mph33.8 kmh 29.97 in1014.9 mb 0.00 in0.0 mm 0.00 in0.0 mm 0.00 in0.0 mm
05:32 AM 54.1°F12.3°C 41.4°F5.2°C 62% 9.0 mph WNW14.5 kmh WNW 21.0 mph33.8 kmh 29.97 in1014.9 mb 0.00 in0.0 mm 0.00 in0.0 mm 0.00 in0.0 mm
05:34 AM 54.2°F12.3°C 41.5°F5.3°C 62% 12.0 mph NW19.3 kmh NW 19.0 mph30.6 kmh 29.97 in1014.9 mb 0.00 in0.0 mm 0.00 in0.0 mm 0.00 in0.0 mm
05:36 AM 54.2°F12.3°C 41.5°F5.3°C 62% 11.0 mph NW17.7 kmh NW 19.0 mph30.6 kmh 29.97 in1014.9 mb 0.00 in0.0 mm 0.00 in0.0 mm 0.00 in0.0 mm
05:38 AM 54.1°F12.3°C 41.0°F5.0°C 61% 14.0 mph NNW22.5 kmh NNW 19.0 mph30.6 kmh 29.97 in1014.9 mb 0.00 in0.0 mm 0.00 in0.0 mm 0.00 in0.0 mm
05:40 AM 54.2°F12.3°C 41.1°F5.1°C 61% 14.0 mph NW22.5 kmh NW 19.0 mph30.6 kmh 29.98 in1015.2 mb 0.00 in0.0 mm 0.00 in0.0 mm 0.00 in0.0 mm
05:42 AM 54.1°F12.3°C 41.0°F5.0°C 61% 12.0 mph NW19.3 kmh NW 19.0 mph30.6 kmh 29.98 in1015.2 mb 0.00 in0.0 mm 0.00 in0.0 mm 0.00 in0.0 mm
05:44 AM 54.1°F12.3°C 41.0°F5.0°C 61% 13.0 mph NW20.9 kmh NW 19.0 mph30.6 kmh 29.98 in1015.2 mb 0.00 in0.0 mm 0.00 in0.0 mm 0.00 in0.0 mm
05:46 AM 54.1°F12.3°C 41.0°F5.0°C 61% 15.0 mph NW24.1 kmh NW 19.0 mph30.6 kmh 29.98 in1015.2 mb 0.00 in0.0 mm 0.00 in0.0 mm 0.00 in0.0 mm
05:48 AM 54.1°F12.3°C 41.0°F5.0°C 61% 13.0 mph WNW20.9 kmh WNW 19.0 mph30.6 kmh 29.98 in1015.2 mb 0.00 in0.0 mm 0.00 in0.0 mm 0.00 in0.0 mm
05:50 AM 54.0°F12.2°C 40.9°F4.9°C 61% 14.0 mph NNW22.5 kmh NNW 21.0 mph33.8 kmh 29.98 in1015.2 mb 0.00 in0.0 mm 0.00 in0.0 mm 0.00 in0.0 mm
05:52 AM 54.0°F12.2°C 40.9°F4.9°C 61% 8.0 mph NW12.9 kmh NW 21.0 mph33.8 kmh 29.99 in1015.6 mb 0.00 in0.0 mm 0.00 in0.0 mm 0.00 in0.0 mm
05:54 AM 53.9°F12.2°C 40.8°F4.9°C 61% 15.0 mph WNW24.1 kmh WNW 21.0 mph33.8 kmh 29.99 in1015.6 mb 0.00 in0.0 mm 0.00 in0.0 mm 0.00 in0.0 mm
05:56 AM 53.9°F12.2°C 40.8°F4.9°C 61% 20.0 mph NW32.2 kmh NW 21.0 mph33.8 kmh 29.99 in1015.6 mb 0.00 in0.0 mm 0.00 in0.0 mm 0.00 in0.0 mm
05:58 AM 54.0°F12.2°C 40.9°F4.9°C 61% 19.0 mph NW30.6 kmh NW 21.0 mph33.8 kmh 29.99 in1015.6 mb 0.00 in0.0 mm 0.00 in0.0 mm 0.00 in0.0 mm
06:00 AM 53.9°F12.2°C 40.8°F4.9°C 61% 9.0 mph NW14.5 kmh NW 21.0 mph33.8 kmh 29.99 in1015.6 mb 0.00 in0.0 mm 0.00 in0.0 mm 0.00 in0.0 mm
06:02 AM 53.9°F12.2°C 40.8°F4.9°C 61% 11.0 mph NNW17.7 kmh NNW 21.0 mph33.8 kmh 29.99 in1015.6 mb 0.00 in0.0 mm 0.00 in0.0 mm 0.00 in0.0 mm
06:04 AM 53.8°F12.1°C 40.7°F4.8°C 61% 13.0 mph NNW20.9 kmh NNW 15.0 mph24.1 kmh 29.99 in1015.6 mb 0.00 in0.0 mm 0.00 in0.0 mm 0.00 in0.0 mm
06:10 AM 53.7°F12.1°C 41.0°F5.0°C 62% 19.0 mph WNW30.6 kmh WNW 19.0 mph30.6 kmh 30.00 in1015.9 mb 0.00 in0.0 mm 0.00 in0.0 mm 0.00 in0.0 mm
06:12 AM 53.7°F12.1°C 41.0°F5.0°C 62% 17.0 mph NW27.4 kmh NW 22.0 mph35.4 kmh 30.00 in1015.9 mb 0.00 in0.0 mm 0.00 in0.0 mm 0.00 in0.0 mm
06:14 AM 53.7°F12.1°C 41.0°F5.0°C 62% 18.0 mph NW29.0 kmh NW 22.0 mph35.4 kmh 30.00 in1015.9 mb 0.00 in0.0 mm 0.00 in0.0 mm 0.00 in0.0 mm
06:16 AM 53.6°F12.0°C 40.9°F4.9°C 62% 19.0 mph NW30.6 kmh NW 22.0 mph35.4 kmh 30.00 in1015.9 mb 0.00 in0.0 mm 0.00 in0.0 mm 0.00 in0.0 mm
06:18 AM 53.6°F12.0°C 40.9°F4.9°C 62% 11.0 mph WNW17.7 kmh WNW 22.0 mph35.4 kmh 30.00 in1015.9 mb 0.00 in0.0 mm 0.00 in0.0 mm 0.00 in0.0 mm
06:20 AM 53.5°F11.9°C 40.8°F4.9°C 62% 16.0 mph NW25.7 kmh NW 22.0 mph35.4 kmh 30.00 in1015.9 mb 0.00 in0.0 mm 0.00 in0.0 mm 0.00 in0.0 mm
06:22 AM 53.5°F11.9°C 40.8°F4.9°C 62% 15.0 mph NNW24.1 kmh NNW 22.0 mph35.4 kmh 30.00 in1015.9 mb 0.00 in0.0 mm 0.00 in0.0 mm 0.00 in0.0 mm
06:24 AM 53.4°F11.9°C 40.7°F4.8°C 62% 14.0 mph NNW22.5 kmh NNW 22.0 mph35.4 kmh 30.00 in1015.9 mb 0.00 in0.0 mm 0.00 in0.0 mm 0.00 in0.0 mm
06:26 AM 53.4°F11.9°C 40.7°F4.8°C 62% 18.0 mph NNW29.0 kmh NNW 22.0 mph35.4 kmh 30.00 in1015.9 mb 0.00 in0.0 mm 0.00 in0.0 mm 0.00 in0.0 mm
06:28 AM 53.3°F11.8°C 40.6°F4.8°C 62% 15.0 mph WNW24.1 kmh WNW 22.0 mph35.4 kmh 30.00 in1015.9 mb 0.00 in0.0 mm 0.00 in0.0 mm 0.00 in0.0 mm
06:30 AM 53.3°F11.8°C 40.6°F4.8°C 62% 17.0 mph NNW27.4 kmh NNW 24.0 mph38.6 kmh 30.00 in1015.9 mb 0.00 in0.0 mm 0.00 in0.0 mm 0.00 in0.0 mm
06:32 AM 53.3°F11.8°C 40.6°F4.8°C 62% 15.0 mph NNW24.1 kmh NNW 26.0 mph41.8 kmh 30.00 in1015.9 mb 0.00 in0.0 mm 0.00 in0.0 mm 0.00 in0.0 mm
06:34 AM 53.3°F11.8°C 40.6°F4.8°C 62% 9.0 mph NW14.5 kmh NW 16.0 mph25.7 kmh 30.00 in1015.9 mb 0.00 in0.0 mm 0.00 in0.0 mm 0.00 in0.0 mm
06:36 AM 53.2°F11.8°C 40.5°F4.7°C 62% 21.0 mph NNW33.8 kmh NNW 21.0 mph33.8 kmh 30.01 in1016.3 mb 0.00 in0.0 mm 0.00 in0.0 mm 0.00 in0.0 mm
06:38 AM 53.1°F11.7°C 40.4°F4.7°C 62% 20.0 mph NNW32.2 kmh NNW 23.0 mph37.0 kmh 30.01 in1016.3 mb 0.00 in0.0 mm 0.00 in0.0 mm 0.00 in0.0 mm
06:40 AM 53.1°F11.7°C 40.4°F4.7°C 62% 18.0 mph NW29.0 kmh NW 23.0 mph37.0 kmh 30.01 in1016.3 mb 0.00 in0.0 mm 0.00 in0.0 mm 0.00 in0.0 mm
06:42 AM 53.0°F11.7°C 40.3°F4.6°C 62% 15.0 mph N24.1 kmh N 23.0 mph37.0 kmh 30.01 in1016.3 mb 0.00 in0.0 mm 0.00 in0.0 mm 0.00 in0.0 mm
06:44 AM 52.9°F11.6°C 40.3°F4.6°C 62% 12.0 mph N19.3 kmh N 23.0 mph37.0 kmh 30.01 in1016.3 mb 0.00 in0.0 mm 0.00 in0.0 mm 0.00 in0.0 mm
06:46 AM 52.9°F11.6°C 40.3°F4.6°C 62% 12.0 mph N19.3 kmh N 23.0 mph37.0 kmh 30.01 in1016.3 mb 0.00 in0.0 mm 0.00 in0.0 mm 0.00 in0.0 mm
06:48 AM 52.9°F11.6°C 40.3°F4.6°C 62% 12.0 mph NNW19.3 kmh NNW 23.0 mph37.0 kmh 30.01 in1016.3 mb 0.00 in0.0 mm 0.00 in0.0 mm 0.00 in0.0 mm
06:50 AM 52.8°F11.6°C 40.2°F4.6°C 62% 19.0 mph NNW30.6 kmh NNW 23.0 mph37.0 kmh 30.01 in1016.3 mb 0.00 in0.0 mm 0.00 in0.0 mm 0.00 in0.0 mm
06:52 AM 52.8°F11.6°C 40.2°F4.6°C 62% 5.0 mph NNW8.0 kmh NNW 23.0 mph37.0 kmh 30.02 in1016.6 mb 0.00 in0.0 mm 0.00 in0.0 mm 0.00 in0.0 mm
06:54 AM 52.8°F11.6°C 40.2°F4.6°C 62% 18.0 mph NW29.0 kmh NW 23.0 mph37.0 kmh 30.02 in1016.6 mb 0.00 in0.0 mm 0.00 in0.0 mm 0.00 in0.0 mm
06:56 AM 52.8°F11.6°C 40.2°F4.6°C 62% 17.0 mph NNW27.4 kmh NNW 23.0 mph37.0 kmh 30.03 in1016.9 mb 0.00 in0.0 mm 0.00 in0.0 mm 0.00 in0.0 mm
06:58 AM 52.8°F11.6°C 40.2°F4.6°C 62% 18.0 mph NNW29.0 kmh NNW 23.0 mph37.0 kmh 30.03 in1016.9 mb 0.00 in0.0 mm 0.00 in0.0 mm 0.00 in0.0 mm
07:00 AM 52.8°F11.6°C 40.2°F4.6°C 62% 14.0 mph NW22.5 kmh NW 23.0 mph37.0 kmh 30.03 in1016.9 mb 0.00 in0.0 mm 0.00 in0.0 mm 0.00 in0.0 mm
07:02 AM 52.8°F11.6°C 40.2°F4.6°C 62% 14.0 mph NW22.5 kmh NW 23.0 mph37.0 kmh 30.03 in1016.9 mb 0.00 in0.0 mm 0.00 in0.0 mm 0.00 in0.0 mm
07:04 AM 52.7°F11.5°C 40.1°F4.5°C 62% 15.0 mph NW24.1 kmh NW 21.0 mph33.8 kmh 30.03 in1016.9 mb 0.00 in0.0 mm 0.00 in0.0 mm 0.00 in0.0 mm
07:06 AM 52.7°F11.5°C 40.1°F4.5°C 62% 11.0 mph NW17.7 kmh NW 21.0 mph33.8 kmh 30.03 in1016.9 mb 0.00 in0.0 mm 0.00 in0.0 mm 0.00 in0.0 mm
07:08 AM 52.6°F11.4°C 40.0°F4.4°C 62% 21.0 mph NW33.8 kmh NW 21.0 mph33.8 kmh 30.04 in1017.3 mb 0.00 in0.0 mm 0.00 in0.0 mm 0.00 in0.0 mm
07:10 AM 52.7°F11.5°C 40.1°F4.5°C 62% 11.0 mph NNW17.7 kmh NNW 21.0 mph33.8 kmh 30.04 in1017.3 mb 0.00 in0.0 mm 0.00 in0.0 mm 0.00 in0.0 mm
07:12 AM 52.6°F11.4°C 40.0°F4.4°C 62% 14.0 mph NNW22.5 kmh NNW 21.0 mph33.8 kmh 30.04 in1017.3 mb 0.00 in0.0 mm 0.00 in0.0 mm 0.00 in0.0 mm
07:14 AM 52.6°F11.4°C 40.0°F4.4°C 62% 18.0 mph NW29.0 kmh NW 21.0 mph33.8 kmh 30.04 in1017.3 mb 0.00 in0.0 mm 0.00 in0.0 mm 0.00 in0.0 mm
07:16 AM 52.5°F11.4°C 39.9°F4.4°C 62% 8.0 mph NW12.9 kmh NW 21.0 mph33.8 kmh 30.04 in1017.3 mb 0.00 in0.0 mm 0.00 in0.0 mm 0.00 in0.0 mm
07:18 AM 52.4°F11.3°C 39.8°F4.3°C 62% 15.0 mph NW24.1 kmh NW 21.0 mph33.8 kmh 30.05 in1017.6 mb 0.00 in0.0 mm 0.00 in0.0 mm 0.00 in0.0 mm
07:20 AM 52.4°F11.3°C 39.8°F4.3°C 62% 13.0 mph N20.9 kmh N 21.0 mph33.8 kmh 30.05 in1017.6 mb 0.00 in0.0 mm 0.00 in0.0 mm 0.00 in0.0 mm
07:22 AM 52.4°F11.3°C 39.8°F4.3°C 62% 12.0 mph NNW19.3 kmh NNW 21.0 mph33.8 kmh 30.05 in1017.6 mb 0.00 in0.0 mm 0.00 in0.0 mm 0.00 in0.0 mm
07:24 AM 52.4°F11.3°C 39.8°F4.3°C 62% 12.0 mph NW19.3 kmh NW 21.0 mph33.8 kmh 30.05 in1017.6 mb 0.00 in0.0 mm 0.00 in0.0 mm 0.00 in0.0 mm
07:26 AM 52.4°F11.3°C 39.8°F4.3°C 62% 12.0 mph NNW19.3 kmh NNW 21.0 mph33.8 kmh 30.05 in1017.6 mb 0.00 in0.0 mm 0.00 in0.0 mm 0.00 in0.0 mm
07:28 AM 52.3°F11.3°C 39.7°F4.3°C 62% 15.0 mph NW24.1 kmh NW 21.0 mph33.8 kmh 30.05 in1017.6 mb 0.00 in0.0 mm 0.00 in0.0 mm 0.00 in0.0 mm
07:30 AM 52.3°F11.3°C 39.7°F4.3°C 62% 11.0 mph NW17.7 kmh NW 21.0 mph33.8 kmh 30.06 in1017.9 mb 0.00 in0.0 mm 0.00 in0.0 mm 0.00 in0.0 mm
07:32 AM 52.3°F11.3°C 40.1°F4.5°C 63% 12.0 mph NW19.3 kmh NW 21.0 mph33.8 kmh 30.05 in1017.6 mb 0.00 in0.0 mm 0.00 in0.0 mm 0.00 in0.0 mm
07:34 AM 52.2°F11.2°C 40.0°F4.4°C 63% 12.0 mph NW19.3 kmh NW 15.0 mph24.1 kmh 30.05 in1017.6 mb 0.00 in0.0 mm 0.00 in0.0 mm 0.00 in0.0 mm
07:36 AM 52.2°F11.2°C 40.0°F4.4°C 63% 10.0 mph NNW16.1 kmh NNW 17.0 mph27.4 kmh 30.05 in1017.6 mb 0.00 in0.0 mm 0.00 in0.0 mm 0.00 in0.0 mm
07:38 AM 52.2°F11.2°C 40.0°F4.4°C 63% 13.0 mph NW20.9 kmh NW 17.0 mph27.4 kmh 30.06 in1017.9 mb 0.00 in0.0 mm 0.00 in0.0 mm 0.00 in0.0 mm
07:40 AM 52.2°F11.2°C 40.0°F4.4°C 63% 13.0 mph WNW20.9 kmh WNW 18.0 mph29.0 kmh 30.05 in1017.6 mb 0.00 in0.0 mm 0.00 in0.0 mm 0.00 in0.0 mm
07:42 AM 52.1°F11.2°C 39.9°F4.4°C 63% 9.0 mph N14.5 kmh N 18.0 mph29.0 kmh 30.05 in1017.6 mb 0.00 in0.0 mm 0.00 in0.0 mm 0.00 in0.0 mm
07:44 AM 52.2°F11.2°C 40.0°F4.4°C 63% 15.0 mph N24.1 kmh N 18.0 mph29.0 kmh 30.06 in1017.9 mb 0.00 in0.0 mm 0.00 in0.0 mm 0.00 in0.0 mm
07:46 AM 52.1°F11.2°C 39.9°F4.4°C 63% 13.0 mph NW20.9 kmh NW 18.0 mph29.0 kmh 30.06 in1017.9 mb 0.00 in0.0 mm 0.00 in0.0 mm 0.00 in0.0 mm
07:48 AM 52.2°F11.2°C 39.6°F4.2°C 62% 10.0 mph NW16.1 kmh NW 18.0 mph29.0 kmh 30.06 in1017.9 mb 0.00 in0.0 mm 0.00 in0.0 mm 0.00 in0.0 mm
07:50 AM 52.2°F11.2°C 39.6°F4.2°C 62% 14.0 mph NW22.5 kmh NW 18.0 mph29.0 kmh 30.06 in1017.9 mb 0.00 in0.0 mm 0.00 in0.0 mm 0.00 in0.0 mm
07:52 AM 52.3°F11.3°C 39.7°F4.3°C 62% 8.0 mph NW12.9 kmh NW 21.0 mph33.8 kmh 30.06 in1017.9 mb 0.00 in0.0 mm 0.00 in0.0 mm 0.00 in0.0 mm
07:54 AM 52.3°F11.3°C 39.7°F4.3°C 62% 13.0 mph NW20.9 kmh NW 21.0 mph33.8 kmh 30.06 in1017.9 mb 0.00 in0.0 mm 0.00 in0.0 mm 0.00 in0.0 mm
07:56 AM 52.3°F11.3°C 39.7°F4.3°C 62% 15.0 mph N24.1 kmh N 21.0 mph33.8 kmh 30.07 in1018.3 mb 0.00 in0.0 mm 0.00 in0.0 mm 0.00 in0.0 mm
07:58 AM 52.4°F11.3°C 39.8°F4.3°C 62% 6.0 mph NW9.7 kmh NW 21.0 mph33.8 kmh 30.07 in1018.3 mb 0.00 in0.0 mm 0.00 in0.0 mm 0.00 in0.0 mm
08:00 AM 52.4°F11.3°C 39.8°F4.3°C 62% 11.0 mph NW17.7 kmh NW 21.0 mph33.8 kmh 30.07 in1018.3 mb 0.00 in0.0 mm 0.00 in0.0 mm 0.00 in0.0 mm
08:02 AM 52.4°F11.3°C 39.8°F4.3°C 62% 19.0 mph NNW30.6 kmh NNW 21.0 mph33.8 kmh 30.07 in1018.3 mb 0.00 in0.0 mm 0.00 in0.0 mm 0.00 in0.0 mm
08:04 AM 52.4°F11.3°C 39.8°F4.3°C 62% 12.0 mph NNW19.3 kmh NNW 15.0 mph24.1 kmh 30.07 in1018.3 mb 0.00 in0.0 mm 0.00 in0.0 mm 0.00 in0.0 mm
08:06 AM 52.4°F11.3°C 39.8°F4.3°C 62% 8.0 mph NW12.9 kmh NW 17.0 mph27.4 kmh 30.07 in1018.3 mb 0.00 in0.0 mm 0.00 in0.0 mm 0.00 in0.0 mm
08:08 AM 52.5°F11.4°C 39.9°F4.4°C 62% 9.0 mph NW14.5 kmh NW 17.0 mph27.4 kmh 30.08 in1018.6 mb 0.00 in0.0 mm 0.00 in0.0 mm 0.00 in0.0 mm
08:10 AM 52.5°F11.4°C 39.5°F4.2°C 61% 8.0 mph NW12.9 kmh NW 20.0 mph32.2 kmh 30.08 in1018.6 mb 0.00 in0.0 mm 0.00 in0.0 mm 0.00 in0.0 mm
08:12 AM 52.5°F11.4°C 39.5°F4.2°C 61% 11.0 mph NW17.7 kmh NW 20.0 mph32.2 kmh 30.08 in1018.6 mb 0.00 in0.0 mm 0.00 in0.0 mm 0.00 in0.0 mm
08:14 AM 52.6°F11.4°C 39.6°F4.2°C 61% 14.0 mph NNW22.5 kmh NNW 20.0 mph32.2 kmh 30.08 in1018.6 mb 0.00 in0.0 mm 0.00 in0.0 mm 0.00 in0.0 mm
08:16 AM 52.6°F11.4°C 39.6°F4.2°C 61% 10.0 mph WNW16.1 kmh WNW 20.0 mph32.2 kmh 30.08 in1018.6 mb 0.00 in0.0 mm 0.00 in0.0 mm 0.00 in0.0 mm
08:18 AM 52.6°F11.4°C 39.6°F4.2°C 61% 10.0 mph NW16.1 kmh NW 20.0 mph32.2 kmh 30.08 in1018.6 mb 0.00 in0.0 mm 0.00 in0.0 mm 0.00 in0.0 mm
08:20 AM 52.6°F11.4°C 39.6°F4.2°C 61% 10.0 mph NW16.1 kmh NW 20.0 mph32.2 kmh 30.09 in1019.0 mb 0.00 in0.0 mm 0.00 in0.0 mm 0.00 in0.0 mm
08:22 AM 52.7°F11.5°C 39.6°F4.2°C 61% 13.0 mph NNW20.9 kmh NNW 20.0 mph32.2 kmh 30.09 in1019.0 mb 0.00 in0.0 mm 0.00 in0.0 mm 0.00 in0.0 mm
08:24 AM 52.7°F11.5°C 39.6°F4.2°C 61% 16.0 mph NW25.7 kmh NW 20.0 mph32.2 kmh 30.09 in1019.0 mb 0.00 in0.0 mm 0.00 in0.0 mm 0.00 in0.0 mm
08:26 AM 52.7°F11.5°C 39.6°F4.2°C 61% 14.0 mph N22.5 kmh N 20.0 mph32.2 kmh 30.09 in1019.0 mb 0.00 in0.0 mm 0.00 in0.0 mm 0.00 in0.0 mm
08:28 AM 52.8°F11.6°C 39.7°F4.3°C 61% 10.0 mph NNW16.1 kmh NNW 20.0 mph32.2 kmh 30.09 in1019.0 mb 0.00 in0.0 mm 0.00 in0.0 mm 0.00 in0.0 mm
08:30 AM 52.8°F11.6°C 39.7°F4.3°C 61% 15.0 mph NNW24.1 kmh NNW 20.0 mph32.2 kmh 30.10 in1019.3 mb 0.00 in0.0 mm 0.00 in0.0 mm 0.00 in0.0 mm
08:32 AM 52.8°F11.6°C 39.3°F4.1°C 60% 10.0 mph WNW16.1 kmh WNW 20.0 mph32.2 kmh 30.10 in1019.3 mb 0.00 in0.0 mm 0.00 in0.0 mm 0.00 in0.0 mm
08:34 AM 52.9°F11.6°C 39.4°F4.1°C 60% 14.0 mph NW22.5 kmh NW 17.0 mph27.4 kmh 30.10 in1019.3 mb 0.00 in0.0 mm 0.00 in0.0 mm 0.00 in0.0 mm
08:36 AM 52.9°F11.6°C 39.4°F4.1°C 60% 9.0 mph NNW14.5 kmh NNW 17.0 mph27.4 kmh 30.10 in1019.3 mb 0.00 in0.0 mm 0.00 in0.0 mm 0.00 in0.0 mm
08:38 AM 53.0°F11.7°C 39.5°F4.2°C 60% 13.0 mph NNW20.9 kmh NNW 19.0 mph30.6 kmh 30.10 in1019.3 mb 0.00 in0.0 mm 0.00 in0.0 mm 0.00 in0.0 mm
08:40 AM 53.0°F11.7°C 39.5°F4.2°C 60% 5.0 mph NW8.0 kmh NW 19.0 mph30.6 kmh 30.10 in1019.3 mb 0.00 in0.0 mm 0.00 in0.0 mm 0.00 in0.0 mm
08:42 AM 53.0°F11.7°C 39.5°F4.2°C 60% 19.0 mph NW30.6 kmh NW 22.0 mph35.4 kmh 30.10 in1019.3 mb 0.00 in0.0 mm 0.00 in0.0 mm 0.00 in0.0 mm
08:44 AM 53.0°F11.7°C 39.5°F4.2°C 60% 12.0 mph NW19.3 kmh NW 22.0 mph35.4 kmh 30.10 in1019.3 mb 0.00 in0.0 mm 0.00 in0.0 mm 0.00 in0.0 mm
08:46 AM 53.0°F11.7°C 39.5°F4.2°C 60% 21.0 mph NW33.8 kmh NW 22.0 mph35.4 kmh 30.10 in1019.3 mb 0.00 in0.0 mm 0.00 in0.0 mm 0.00 in0.0 mm
08:48 AM 52.9°F11.6°C 39.4°F4.1°C 60% 16.0 mph NNW25.7 kmh NNW 22.0 mph35.4 kmh 30.10 in1019.3 mb 0.00 in0.0 mm 0.00 in0.0 mm 0.00 in0.0 mm
08:50 AM 53.0°F11.7°C 39.5°F4.2°C 60% 19.0 mph NNW30.6 kmh NNW 22.0 mph35.4 kmh 30.10 in1019.3 mb 0.00 in0.0 mm 0.00 in0.0 mm 0.00 in0.0 mm
08:52 AM 53.0°F11.7°C 39.5°F4.2°C 60% 12.0 mph NW19.3 kmh NW 23.0 mph37.0 kmh 30.10 in1019.3 mb 0.00 in0.0 mm 0.00 in0.0 mm 0.00 in0.0 mm
08:54 AM 53.1°F11.7°C 39.6°F4.2°C 60% 19.0 mph N30.6 kmh N 23.0 mph37.0 kmh 30.10 in1019.3 mb 0.00 in0.0 mm 0.00 in0.0 mm 0.00 in0.0 mm
08:56 AM 53.1°F11.7°C 39.2°F4.0°C 59% 14.0 mph N22.5 kmh N 23.0 mph37.0 kmh 30.11 in1019.6 mb 0.00 in0.0 mm 0.00 in0.0 mm 0.00 in0.0 mm
08:58 AM 53.2°F11.8°C 39.3°F4.1°C 59% 8.0 mph NW12.9 kmh NW 23.0 mph37.0 kmh 30.11 in1019.6 mb 0.00 in0.0 mm 0.00 in0.0 mm 0.00 in0.0 mm
09:00 AM 53.2°F11.8°C 39.3°F4.1°C 59% 18.0 mph N29.0 kmh N 23.0 mph37.0 kmh 30.11 in1019.6 mb 0.00 in0.0 mm 0.00 in0.0 mm 0.00 in0.0 mm
09:02 AM 53.2°F11.8°C 39.3°F4.1°C 59% 14.0 mph NW22.5 kmh NW 24.0 mph38.6 kmh 30.11 in1019.6 mb 0.00 in0.0 mm 0.00 in0.0 mm 0.00 in0.0 mm
09:04 AM 53.3°F11.8°C 39.4°F4.1°C 59% 11.0 mph NW17.7 kmh NW 24.0 mph38.6 kmh 30.11 in1019.6 mb 0.00 in0.0 mm 0.00 in0.0 mm 0.00 in0.0 mm
09:06 AM 53.2°F11.8°C 39.3°F4.1°C 59% 13.0 mph N20.9 kmh N 24.0 mph38.6 kmh 30.11 in1019.6 mb 0.00 in0.0 mm 0.00 in0.0 mm 0.00 in0.0 mm
09:08 AM 53.3°F11.8°C 39.4°F4.1°C 59% 16.0 mph WNW25.7 kmh WNW 24.0 mph38.6 kmh 30.11 in1019.6 mb 0.00 in0.0 mm 0.00 in0.0 mm 0.00 in0.0 mm
09:10 AM 53.3°F11.8°C 39.4°F4.1°C 59% 16.0 mph NNW25.7 kmh NNW 24.0 mph38.6 kmh 30.11 in1019.6 mb 0.00 in0.0 mm 0.00 in0.0 mm 0.00 in0.0 mm
09:12 AM 53.4°F11.9°C 39.5°F4.2°C 59% 8.0 mph W12.9 kmh W 24.0 mph38.6 kmh 30.12 in1020.0 mb 0.00 in0.0 mm 0.00 in0.0 mm 0.00 in0.0 mm
09:14 AM 53.4°F11.9°C 39.5°F4.2°C 59% 21.0 mph NW33.8 kmh NW 24.0 mph38.6 kmh 30.12 in1020.0 mb 0.00 in0.0 mm 0.00 in0.0 mm 0.00 in0.0 mm
09:16 AM 53.4°F11.9°C 39.5°F4.2°C 59% 16.0 mph NNW25.7 kmh NNW 24.0 mph38.6 kmh 30.12 in1020.0 mb 0.00 in0.0 mm 0.00 in0.0 mm 0.00 in0.0 mm
09:17 AM 53.4°F11.9°C 39.5°F4.2°C 59% 12.0 mph NW19.3 kmh NW 24.0 mph38.6 kmh 30.12 in1020.0 mb 0.00 in0.0 mm 0.00 in0.0 mm 0.00 in0.0 mm
09:20 AM 53.5°F11.9°C 39.5°F4.2°C 59% 10.0 mph N16.1 kmh N 24.0 mph38.6 kmh 30.13 in1020.3 mb 0.00 in0.0 mm 0.00 in0.0 mm 0.00 in0.0 mm
09:22 AM 53.6°F12.0°C 39.2°F4.0°C 58% 10.0 mph N16.1 kmh N 24.0 mph38.6 kmh 30.13 in1020.3 mb 0.00 in0.0 mm 0.00 in0.0 mm 0.00 in0.0 mm
09:24 AM 53.7°F12.1°C 39.3°F4.1°C 58% 5.0 mph N8.0 kmh N 24.0 mph38.6 kmh 30.13 in1020.3 mb 0.00 in0.0 mm 0.00 in0.0 mm 0.00 in0.0 mm
09:26 AM 53.8°F12.1°C 39.4°F4.1°C 58% 6.0 mph NNW9.7 kmh NNW 24.0 mph38.6 kmh 30.13 in1020.3 mb 0.00 in0.0 mm 0.00 in0.0 mm 0.00 in0.0 mm
09:28 AM 53.9°F12.2°C 39.5°F4.2°C 58% 16.0 mph NNW25.7 kmh NNW 24.0 mph38.6 kmh 30.14 in1020.7 mb 0.00 in0.0 mm 0.00 in0.0 mm 0.00 in0.0 mm
09:30 AM 53.8°F12.1°C 39.4°F4.1°C 58% 14.0 mph NNW22.5 kmh NNW 24.0 mph38.6 kmh 30.14 in1020.7 mb 0.00 in0.0 mm 0.00 in0.0 mm 0.00 in0.0 mm
09:32 AM 53.8°F12.1°C 39.4°F4.1°C 58% 6.0 mph NE9.7 kmh NE 24.0 mph38.6 kmh 30.14 in1020.7 mb 0.00 in0.0 mm 0.00 in0.0 mm 0.00 in0.0 mm
09:34 AM 53.9°F12.2°C 39.0°F3.9°C 57% 16.0 mph NW25.7 kmh NW 21.0 mph33.8 kmh 30.15 in1021.0 mb 0.00 in0.0 mm 0.00 in0.0 mm 0.00 in0.0 mm
09:36 AM 53.8°F12.1°C 39.4°F4.1°C 58% 6.0 mph NW9.7 kmh NW 21.0 mph33.8 kmh 30.15 in1021.0 mb 0.00 in0.0 mm 0.00 in0.0 mm 0.00 in0.0 mm
09:38 AM 53.8°F12.1°C 39.4°F4.1°C 58% 14.0 mph N22.5 kmh N 21.0 mph33.8 kmh 30.16 in1021.3 mb 0.00 in0.0 mm 0.00 in0.0 mm 0.00 in0.0 mm
09:40 AM 53.7°F12.1°C 39.3°F4.1°C 58% 14.0 mph NNW22.5 kmh NNW 21.0 mph33.8 kmh 30.16 in1021.3 mb 0.00 in0.0 mm 0.00 in0.0 mm 0.00 in0.0 mm
09:42 AM 53.7°F12.1°C 39.3°F4.1°C 58% 15.0 mph NW24.1 kmh NW 23.0 mph37.0 kmh 30.16 in1021.3 mb 0.00 in0.0 mm 0.00 in0.0 mm 0.00 in0.0 mm
09:44 AM 53.5°F11.9°C 38.7°F3.7°C 57% 13.0 mph NNW20.9 kmh NNW 23.0 mph37.0 kmh 30.16 in1021.3 mb 0.00 in0.0 mm 0.00 in0.0 mm 0.00 in0.0 mm
09:46 AM 53.5°F11.9°C 39.1°F3.9°C 58% 11.0 mph NW17.7 kmh NW 23.0 mph37.0 kmh 30.16 in1021.3 mb 0.00 in0.0 mm 0.00 in0.0 mm 0.00 in0.0 mm
09:48 AM 53.5°F11.9°C 39.1°F3.9°C 58% 17.0 mph NW27.4 kmh NW 24.0 mph38.6 kmh 30.16 in1021.3 mb 0.00 in0.0 mm 0.00 in0.0 mm 0.00 in0.0 mm
09:50 AM 53.6°F12.0°C 39.2°F4.0°C 58% 14.0 mph NNE22.5 kmh NNE 24.0 mph38.6 kmh 30.16 in1021.3 mb 0.00 in0.0 mm 0.00 in0.0 mm 0.00 in0.0 mm
09:52 AM 53.7°F12.1°C 39.3°F4.1°C 58% 8.0 mph NW12.9 kmh NW 24.0 mph38.6 kmh 30.16 in1021.3 mb 0.00 in0.0 mm 0.00 in0.0 mm 0.00 in0.0 mm
09:54 AM 53.9°F12.2°C 39.0°F3.9°C 57% 14.0 mph NW22.5 kmh NW 24.0 mph38.6 kmh 30.16 in1021.3 mb 0.00 in0.0 mm 0.00 in0.0 mm 0.00 in0.0 mm
09:56 AM 54.0°F12.2°C 39.1°F3.9°C 57% 21.0 mph N33.8 kmh N 24.0 mph38.6 kmh 30.16 in1021.3 mb 0.00 in0.0 mm 0.00 in0.0 mm 0.00 in0.0 mm
09:58 AM 54.0°F12.2°C 39.1°F3.9°C 57% 14.0 mph NNW22.5 kmh NNW 24.0 mph38.6 kmh 30.16 in1021.3 mb 0.00 in0.0 mm 0.00 in0.0 mm 0.00 in0.0 mm
10:00 AM 54.0°F12.2°C 38.7°F3.7°C 56% 21.0 mph NW33.8 kmh NW 25.0 mph40.2 kmh 30.16 in1021.3 mb 0.00 in0.0 mm 0.00 in0.0 mm 0.00 in0.0 mm
10:02 AM 53.9°F12.2°C 39.0°F3.9°C 57% 23.0 mph N37.0 kmh N 25.0 mph40.2 kmh 30.16 in1021.3 mb 0.00 in0.0 mm 0.00 in0.0 mm 0.00 in0.0 mm
10:04 AM 53.9°F12.2°C 39.0°F3.9°C 57% 6.0 mph N9.7 kmh N 18.0 mph29.0 kmh 30.17 in1021.7 mb 0.00 in0.0 mm 0.00 in0.0 mm 0.00 in0.0 mm
10:06 AM 54.0°F12.2°C 39.1°F3.9°C 57% 10.0 mph NW16.1 kmh NW 18.0 mph29.0 kmh 30.17 in1021.7 mb 0.00 in0.0 mm 0.00 in0.0 mm 0.00 in0.0 mm
10:08 AM 54.2°F12.3°C 39.3°F4.1°C 57% 11.0 mph NW17.7 kmh NW 19.0 mph30.6 kmh 30.17 in1021.7 mb 0.00 in0.0 mm 0.00 in0.0 mm 0.00 in0.0 mm
10:10 AM 54.2°F12.3°C 38.9°F3.8°C 56% 17.0 mph NW27.4 kmh NW 22.0 mph35.4 kmh 30.17 in1021.7 mb 0.00 in0.0 mm 0.00 in0.0 mm 0.00 in0.0 mm
10:12 AM 54.2°F12.3°C 39.3°F4.1°C 57% 23.0 mph NW37.0 kmh NW 23.0 mph37.0 kmh 30.17 in1021.7 mb 0.00 in0.0 mm 0.00 in0.0 mm 0.00 in0.0 mm
10:14 AM 54.2°F12.3°C 38.9°F3.8°C 56% 10.0 mph WNW16.1 kmh WNW 23.0 mph37.0 kmh 30.17 in1021.7 mb 0.00 in0.0 mm 0.00 in0.0 mm 0.00 in0.0 mm
10:16 AM 54.2°F12.3°C 38.9°F3.8°C 56% 9.0 mph NNE14.5 kmh NNE 23.0 mph37.0 kmh 30.17 in1021.7 mb 0.00 in0.0 mm 0.00 in0.0 mm 0.00 in0.0 mm
10:18 AM 54.3°F12.4°C 39.0°F3.9°C 56% 15.0 mph N24.1 kmh N 23.0 mph37.0 kmh 30.17 in1021.7 mb 0.00 in0.0 mm 0.00 in0.0 mm 0.00 in0.0 mm
10:20 AM 54.3°F12.4°C 39.0°F3.9°C 56% 19.0 mph NNW30.6 kmh NNW 23.0 mph37.0 kmh 30.17 in1021.7 mb 0.00 in0.0 mm 0.00 in0.0 mm 0.00 in0.0 mm
10:22 AM 54.2°F12.3°C 38.9°F3.8°C 56% 16.0 mph NW25.7 kmh NW 23.0 mph37.0 kmh 30.17 in1021.7 mb 0.00 in0.0 mm 0.00 in0.0 mm 0.00 in0.0 mm
10:24 AM 54.2°F12.3°C 38.9°F3.8°C 56% 17.0 mph N27.4 kmh N 23.0 mph37.0 kmh 30.17 in1021.7 mb 0.00 in0.0 mm 0.00 in0.0 mm 0.00 in0.0 mm
10:26 AM 54.2°F12.3°C 38.9°F3.8°C 56% 18.0 mph NW29.0 kmh NW 23.0 mph37.0 kmh 30.17 in1021.7 mb 0.00 in0.0 mm 0.00 in0.0 mm 0.00 in0.0 mm
10:28 AM 54.2°F12.3°C 38.9°F3.8°C 56% 16.0 mph NW25.7 kmh NW 23.0 mph37.0 kmh 30.17 in1021.7 mb 0.00 in0.0 mm 0.00 in0.0 mm 0.00 in0.0 mm
10:30 AM 54.1°F12.3°C 38.8°F3.8°C 56% 10.0 mph NW16.1 kmh NW 23.0 mph37.0 kmh 30.17 in1021.7 mb 0.00 in0.0 mm 0.00 in0.0 mm 0.00 in0.0 mm
10:32 AM 54.3°F12.4°C 39.0°F3.9°C 56% 6.0 mph NW9.7 kmh NW 23.0 mph37.0 kmh 30.17 in1021.7 mb 0.00 in0.0 mm 0.00 in0.0 mm 0.00 in0.0 mm
10:34 AM 54.4°F12.4°C 39.1°F3.9°C 56% 18.0 mph NNW29.0 kmh NNW 21.0 mph33.8 kmh 30.17 in1021.7 mb 0.00 in0.0 mm 0.00 in0.0 mm 0.00 in0.0 mm
10:36 AM 54.5°F12.5°C 39.1°F3.9°C 56% 6.0 mph NW9.7 kmh NW 21.0 mph33.8 kmh 30.17 in1021.7 mb 0.00 in0.0 mm 0.00 in0.0 mm 0.00 in0.0 mm
10:38 AM 54.6°F12.6°C 39.2°F4.0°C 56% 17.0 mph N27.4 kmh N 21.0 mph33.8 kmh 30.17 in1021.7 mb 0.00 in0.0 mm 0.00 in0.0 mm 0.00 in0.0 mm
10:40 AM 54.8°F12.7°C 39.0°F3.9°C 55% 16.0 mph NNW25.7 kmh NNW 21.0 mph33.8 kmh 30.17 in1021.7 mb 0.00 in0.0 mm 0.00 in0.0 mm 0.00 in0.0 mm
10:42 AM 55.0°F12.8°C 39.2°F4.0°C 55% 17.0 mph NW27.4 kmh NW 21.0 mph33.8 kmh 30.17 in1021.7 mb 0.00 in0.0 mm 0.00 in0.0 mm 0.00 in0.0 mm
10:44 AM 55.0°F12.8°C 39.2°F4.0°C 55% 6.0 mph NE9.7 kmh NE 22.0 mph35.4 kmh 30.17 in1021.7 mb 0.00 in0.0 mm 0.00 in0.0 mm 0.00 in0.0 mm
10:46 AM 55.2°F12.9°C 39.3°F4.1°C 55% 6.0 mph NE9.7 kmh NE 22.0 mph35.4 kmh 30.17 in1021.7 mb 0.00 in0.0 mm 0.00 in0.0 mm 0.00 in0.0 mm
10:48 AM 55.3°F12.9°C 39.4°F4.1°C 55% 15.0 mph NW24.1 kmh NW 22.0 mph35.4 kmh 30.17 in1021.7 mb 0.00 in0.0 mm 0.00 in0.0 mm 0.00 in0.0 mm
10:50 AM 55.3°F12.9°C 39.4°F4.1°C 55% 16.0 mph NW25.7 kmh NW 22.0 mph35.4 kmh 30.17 in1021.7 mb 0.00 in0.0 mm 0.00 in0.0 mm 0.00 in0.0 mm
10:52 AM 55.4°F13.0°C 39.5°F4.2°C 55% 11.0 mph NNW17.7 kmh NNW 22.0 mph35.4 kmh 30.17 in1021.7 mb 0.00 in0.0 mm 0.00 in0.0 mm 0.00 in0.0 mm
10:54 AM 55.5°F13.1°C 39.1°F3.9°C 54% 13.0 mph NNE20.9 kmh NNE 22.0 mph35.4 kmh 30.17 in1021.7 mb 0.00 in0.0 mm 0.00 in0.0 mm 0.00 in0.0 mm
10:56 AM 55.6°F13.1°C 39.2°F4.0°C 54% 10.0 mph N16.1 kmh N 22.0 mph35.4 kmh 30.17 in1021.7 mb 0.00 in0.0 mm 0.00 in0.0 mm 0.00 in0.0 mm
10:58 AM 55.9°F13.3°C 39.5°F4.2°C 54% 13.0 mph N20.9 kmh N 22.0 mph35.4 kmh 30.17 in1021.7 mb 0.00 in0.0 mm 0.00 in0.0 mm 0.00 in0.0 mm
11:00 AM 55.9°F13.3°C 39.5°F4.2°C 54% 8.0 mph N12.9 kmh N 22.0 mph35.4 kmh 30.17 in1021.7 mb 0.00 in0.0 mm 0.00 in0.0 mm 0.00 in0.0 mm
11:02 AM 55.8°F13.2°C 38.9°F3.8°C 53% 15.0 mph NNW24.1 kmh NNW 23.0 mph37.0 kmh 30.17 in1021.7 mb 0.00 in0.0 mm 0.00 in0.0 mm 0.00 in0.0 mm
11:04 AM 55.7°F13.2°C 39.3°F4.1°C 54% 3.0 mph NW4.8 kmh NW 15.0 mph24.1 kmh 30.17 in1021.7 mb 0.00 in0.0 mm 0.00 in0.0 mm 0.00 in0.0 mm
11:06 AM 56.0°F13.3°C 39.6°F4.2°C 54% 12.0 mph N19.3 kmh N 16.0 mph25.7 kmh 30.17 in1021.7 mb 0.00 in0.0 mm 0.00 in0.0 mm 0.00 in0.0 mm
11:08 AM 56.1°F13.4°C 39.2°F4.0°C 53% 17.0 mph N27.4 kmh N 19.0 mph30.6 kmh 30.17 in1021.7 mb 0.00 in0.0 mm 0.00 in0.0 mm 0.00 in0.0 mm
11:10 AM 56.3°F13.5°C 39.4°F4.1°C 53% 13.0 mph N20.9 kmh N 19.0 mph30.6 kmh 30.17 in1021.7 mb 0.00 in0.0 mm 0.00 in0.0 mm 0.00 in0.0 mm
11:12 AM 56.5°F13.6°C 39.6°F4.2°C 53% 9.0 mph N14.5 kmh N 19.0 mph30.6 kmh 30.17 in1021.7 mb 0.00 in0.0 mm 0.00 in0.0 mm 0.00 in0.0 mm
11:14 AM 56.6°F13.7°C 39.2°F4.0°C 52% 15.0 mph N24.1 kmh N 21.0 mph33.8 kmh 30.17 in1021.7 mb 0.00 in0.0 mm 0.00 in0.0 mm 0.00 in0.0 mm
11:16 AM 56.4°F13.6°C 39.0°F3.9°C 52% 17.0 mph NNW27.4 kmh NNW 21.0 mph33.8 kmh 30.17 in1021.7 mb 0.00 in0.0 mm 0.00 in0.0 mm 0.00 in0.0 mm
11:18 AM 56.3°F13.5°C 39.4°F4.1°C 53% 13.0 mph NW20.9 kmh NW 21.0 mph33.8 kmh 30.17 in1021.7 mb 0.00 in0.0 mm 0.00 in0.0 mm 0.00 in0.0 mm
11:20 AM 56.3°F13.5°C 39.4°F4.1°C 53% 15.0 mph NNW24.1 kmh NNW 21.0 mph33.8 kmh 30.17 in1021.7 mb 0.00 in0.0 mm 0.00 in0.0 mm 0.00 in0.0 mm
11:22 AM 56.2°F13.4°C 39.3°F4.1°C 53% 11.0 mph NNW17.7 kmh NNW 21.0 mph33.8 kmh 30.17 in1021.7 mb 0.00 in0.0 mm 0.00 in0.0 mm 0.00 in0.0 mm
11:24 AM 56.3°F13.5°C 39.4°F4.1°C 53% 16.0 mph NW25.7 kmh NW 21.0 mph33.8 kmh 30.17 in1021.7 mb 0.00 in0.0 mm 0.00 in0.0 mm 0.00 in0.0 mm
11:26 AM 56.3°F13.5°C 39.4°F4.1°C 53% 10.0 mph NW16.1 kmh NW 21.0 mph33.8 kmh 30.17 in1021.7 mb 0.00 in0.0 mm 0.00 in0.0 mm 0.00 in0.0 mm
11:28 AM 56.4°F13.6°C 39.5°F4.2°C 53% 11.0 mph NW17.7 kmh NW 21.0 mph33.8 kmh 30.17 in1021.7 mb 0.00 in0.0 mm 0.00 in0.0 mm 0.00 in0.0 mm
11:30 AM 56.5°F13.6°C 39.1°F3.9°C 52% 14.0 mph NW22.5 kmh NW 21.0 mph33.8 kmh 30.17 in1021.7 mb 0.00 in0.0 mm 0.00 in0.0 mm 0.00 in0.0 mm
11:32 AM 56.5°F13.6°C 39.1°F3.9°C 52% 14.0 mph NW22.5 kmh NW 21.0 mph33.8 kmh 30.17 in1021.7 mb 0.00 in0.0 mm 0.00 in0.0 mm 0.00 in0.0 mm
11:34 AM 56.5°F13.6°C 39.1°F3.9°C 52% 15.0 mph N24.1 kmh N 18.0 mph29.0 kmh 30.17 in1021.7 mb 0.00 in0.0 mm 0.00 in0.0 mm 0.00 in0.0 mm
11:36 AM 56.7°F13.7°C 39.3°F4.1°C 52% 14.0 mph N22.5 kmh N 18.0 mph29.0 kmh 30.17 in1021.7 mb 0.00 in0.0 mm 0.00 in0.0 mm 0.00 in0.0 mm
11:38 AM 56.7°F13.7°C 39.3°F4.1°C 52% 16.0 mph NNW25.7 kmh NNW 20.0 mph32.2 kmh 30.17 in1021.7 mb 0.00 in0.0 mm 0.00 in0.0 mm 0.00 in0.0 mm
11:40 AM 56.7°F13.7°C 39.3°F4.1°C 52% 12.0 mph NW19.3 kmh NW 21.0 mph33.8 kmh 30.17 in1021.7 mb 0.00 in0.0 mm 0.00 in0.0 mm 0.00 in0.0 mm
11:42 AM 56.6°F13.7°C 39.2°F4.0°C 52% 12.0 mph NW19.3 kmh NW 21.0 mph33.8 kmh 30.17 in1021.7 mb 0.00 in0.0 mm 0.00 in0.0 mm 0.00 in0.0 mm
11:44 AM 56.7°F13.7°C 39.3°F4.1°C 52% 11.0 mph NNW17.7 kmh NNW 21.0 mph33.8 kmh 30.17 in1021.7 mb 0.00 in0.0 mm 0.00 in0.0 mm 0.00 in0.0 mm
11:46 AM 56.9°F13.8°C 39.0°F3.9°C 51% 14.0 mph NW22.5 kmh NW 21.0 mph33.8 kmh 30.17 in1021.7 mb 0.00 in0.0 mm 0.00 in0.0 mm 0.00 in0.0 mm
11:48 AM 56.9°F13.8°C 39.0°F3.9°C 51% 15.0 mph NW24.1 kmh NW 21.0 mph33.8 kmh 30.17 in1021.7 mb 0.00 in0.0 mm 0.00 in0.0 mm 0.00 in0.0 mm
11:50 AM 56.9°F13.8°C 39.0°F3.9°C 51% 13.0 mph NNW20.9 kmh NNW 21.0 mph33.8 kmh 30.17 in1021.7 mb 0.00 in0.0 mm 0.00 in0.0 mm 0.00 in0.0 mm
11:52 AM 57.2°F14.0°C 39.3°F4.1°C 51% 14.0 mph NW22.5 kmh NW 21.0 mph33.8 kmh 30.17 in1021.7 mb 0.00 in0.0 mm 0.00 in0.0 mm 0.00 in0.0 mm
11:54 AM 57.3°F14.1°C 39.4°F4.1°C 51% 11.0 mph NW17.7 kmh NW 21.0 mph33.8 kmh 30.17 in1021.7 mb 0.00 in0.0 mm 0.00 in0.0 mm 0.00 in0.0 mm
11:56 AM 57.4°F14.1°C 39.4°F4.1°C 51% 11.0 mph NW17.7 kmh NW 21.0 mph33.8 kmh 30.17 in1021.7 mb 0.00 in0.0 mm 0.00 in0.0 mm 0.00 in0.0 mm
11:58 AM 57.6°F14.2°C 39.1°F3.9°C 50% 17.0 mph NNW27.4 kmh NNW 21.0 mph33.8 kmh 30.17 in1021.7 mb 0.00 in0.0 mm 0.00 in0.0 mm 0.00 in0.0 mm
12:00 PM 57.6°F14.2°C 39.6°F4.2°C 51% 5.0 mph NE8.0 kmh NE 21.0 mph33.8 kmh 30.17 in1021.7 mb 0.00 in0.0 mm 0.00 in0.0 mm 0.00 in0.0 mm
12:02 PM 57.9°F14.4°C 39.9°F4.4°C 51% 10.0 mph NW16.1 kmh NW 21.0 mph33.8 kmh 30.17 in1021.7 mb 0.00 in0.0 mm 0.00 in0.0 mm 0.00 in0.0 mm
12:04 PM 58.1°F14.5°C 39.6°F4.2°C 50% 9.0 mph N14.5 kmh N 16.0 mph25.7 kmh 30.17 in1021.7 mb 0.00 in0.0 mm 0.00 in0.0 mm 0.00 in0.0 mm
12:06 PM 58.3°F14.6°C 39.2°F4.0°C 49% 10.0 mph NW16.1 kmh NW 16.0 mph25.7 kmh 30.17 in1021.7 mb 0.00 in0.0 mm 0.00 in0.0 mm 0.00 in0.0 mm
12:08 PM 58.2°F14.6°C 39.2°F4.0°C 49% 12.0 mph N19.3 kmh N 16.0 mph25.7 kmh 30.17 in1021.7 mb 0.00 in0.0 mm 0.00 in0.0 mm 0.00 in0.0 mm
12:10 PM 58.0°F14.4°C 39.0°F3.9°C 49% 15.0 mph NW24.1 kmh NW 16.0 mph25.7 kmh 30.16 in1021.3 mb 0.00 in0.0 mm 0.00 in0.0 mm 0.00 in0.0 mm
12:12 PM 57.9°F14.4°C 39.4°F4.1°C 50% 8.0 mph NNE12.9 kmh NNE 16.0 mph25.7 kmh 30.16 in1021.3 mb 0.00 in0.0 mm 0.00 in0.0 mm 0.00 in0.0 mm
12:14 PM 57.9°F14.4°C 39.4°F4.1°C 50% 12.0 mph NNW19.3 kmh NNW 16.0 mph25.7 kmh 30.17 in1021.7 mb 0.00 in0.0 mm 0.00 in0.0 mm 0.00 in0.0 mm
12:16 PM 58.1°F14.5°C 39.1°F3.9°C 49% 12.0 mph NW19.3 kmh NW 19.0 mph30.6 kmh 30.16 in1021.3 mb 0.00 in0.0 mm 0.00 in0.0 mm 0.00 in0.0 mm
12:18 PM 58.1°F14.5°C 39.1°F3.9°C 49% 13.0 mph NNW20.9 kmh NNW 20.0 mph32.2 kmh 30.17 in1021.7 mb 0.00 in0.0 mm 0.00 in0.0 mm 0.00 in0.0 mm
12:20 PM 58.0°F14.4°C 39.0°F3.9°C 49% 15.0 mph NNW24.1 kmh NNW 20.0 mph32.2 kmh 30.16 in1021.3 mb 0.00 in0.0 mm 0.00 in0.0 mm 0.00 in0.0 mm
12:22 PM 58.2°F14.6°C 39.2°F4.0°C 49% 11.0 mph NE17.7 kmh NE 20.0 mph32.2 kmh 30.16 in1021.3 mb 0.00 in0.0 mm 0.00 in0.0 mm 0.00 in0.0 mm
12:24 PM 58.4°F14.7°C 39.3°F4.1°C 49% 11.0 mph N17.7 kmh N 20.0 mph32.2 kmh 30.16 in1021.3 mb 0.00 in0.0 mm 0.00 in0.0 mm 0.00 in0.0 mm
12:26 PM 58.6°F14.8°C 39.5°F4.2°C 49% 8.0 mph N12.9 kmh N 20.0 mph32.2 kmh 30.16 in1021.3 mb 0.00 in0.0 mm 0.00 in0.0 mm 0.00 in0.0 mm
12:28 PM 58.8°F14.9°C 39.7°F4.3°C 49% 8.0 mph NNW12.9 kmh NNW 20.0 mph32.2 kmh 30.16 in1021.3 mb 0.00 in0.0 mm 0.00 in0.0 mm 0.00 in0.0 mm
12:30 PM 59.0°F15.0°C 39.9°F4.4°C 49% 6.0 mph NW9.7 kmh NW 20.0 mph32.2 kmh 30.16 in1021.3 mb 0.00 in0.0 mm 0.00 in0.0 mm 0.00 in0.0 mm
12:32 PM 59.0°F15.0°C 39.9°F4.4°C 49% 15.0 mph NW24.1 kmh NW 20.0 mph32.2 kmh 30.16 in1021.3 mb 0.00 in0.0 mm 0.00 in0.0 mm 0.00 in0.0 mm
12:34 PM 59.1°F15.1°C 39.5°F4.2°C 48% 9.0 mph NW14.5 kmh NW 14.0 mph22.5 kmh 30.16 in1021.3 mb 0.00 in0.0 mm 0.00 in0.0 mm 0.00 in0.0 mm
12:36 PM 59.4°F15.2°C 39.7°F4.3°C 48% 9.0 mph NNW14.5 kmh NNW 14.0 mph22.5 kmh 30.16 in1021.3 mb 0.00 in0.0 mm 0.00 in0.0 mm 0.00 in0.0 mm
12:38 PM 59.5°F15.3°C 39.3°F4.1°C 47% 6.0 mph NE9.7 kmh NE 14.0 mph22.5 kmh 30.16 in1021.3 mb 0.00 in0.0 mm 0.00 in0.0 mm 0.00 in0.0 mm
12:40 PM 59.4°F15.2°C 39.7°F4.3°C 48% 10.0 mph NNW16.1 kmh NNW 17.0 mph27.4 kmh 30.16 in1021.3 mb 0.00 in0.0 mm 0.00 in0.0 mm 0.00 in0.0 mm
12:42 PM 59.5°F15.3°C 39.8°F4.3°C 48% 9.0 mph NW14.5 kmh NW 17.0 mph27.4 kmh 30.15 in1021.0 mb 0.00 in0.0 mm 0.00 in0.0 mm 0.00 in0.0 mm
12:44 PM 59.5°F15.3°C 39.8°F4.3°C 48% 10.0 mph NW16.1 kmh NW 17.0 mph27.4 kmh 30.15 in1021.0 mb 0.00 in0.0 mm 0.00 in0.0 mm 0.00 in0.0 mm
12:46 PM 59.3°F15.2°C 39.6°F4.2°C 48% 10.0 mph N16.1 kmh N 17.0 mph27.4 kmh 30.15 in1021.0 mb 0.00 in0.0 mm 0.00 in0.0 mm 0.00 in0.0 mm
12:48 PM 59.3°F15.2°C 39.6°F4.2°C 48% 8.0 mph N12.9 kmh N 17.0 mph27.4 kmh 30.15 in1021.0 mb 0.00 in0.0 mm 0.00 in0.0 mm 0.00 in0.0 mm
12:50 PM 59.4°F15.2°C 39.7°F4.3°C 48% 13.0 mph N20.9 kmh N 17.0 mph27.4 kmh 30.15 in1021.0 mb 0.00 in0.0 mm 0.00 in0.0 mm 0.00 in0.0 mm
12:52 PM 59.5°F15.3°C 39.3°F4.1°C 47% 5.0 mph N8.0 kmh N 17.0 mph27.4 kmh 30.15 in1021.0 mb 0.00 in0.0 mm 0.00 in0.0 mm 0.00 in0.0 mm
12:54 PM 59.4°F15.2°C 39.2°F4.0°C 47% 12.0 mph N19.3 kmh N 17.0 mph27.4 kmh 30.15 in1021.0 mb 0.00 in0.0 mm 0.00 in0.0 mm 0.00 in0.0 mm
12:56 PM 59.4°F15.2°C 39.7°F4.3°C 48% 6.0 mph NNE9.7 kmh NNE 17.0 mph27.4 kmh 30.15 in1021.0 mb 0.00 in0.0 mm 0.00 in0.0 mm 0.00 in0.0 mm
12:58 PM 59.6°F15.3°C 39.9°F4.4°C 48% 10.0 mph NNW16.1 kmh NNW 17.0 mph27.4 kmh 30.15 in1021.0 mb 0.00 in0.0 mm 0.00 in0.0 mm 0.00 in0.0 mm
01:00 PM 59.7°F15.4°C 39.5°F4.2°C 47% 5.0 mph NW8.0 kmh NW 17.0 mph27.4 kmh 30.15 in1021.0 mb 0.00 in0.0 mm 0.00 in0.0 mm 0.00 in0.0 mm
01:02 PM 59.9°F15.5°C 39.6°F4.2°C 47% 6.0 mph NNW9.7 kmh NNW 20.0 mph32.2 kmh 30.15 in1021.0 mb 0.00 in0.0 mm 0.00 in0.0 mm 0.00 in0.0 mm
01:04 PM 60.0°F15.6°C 39.7°F4.3°C 47% 9.0 mph WNW14.5 kmh WNW 16.0 mph25.7 kmh 30.15 in1021.0 mb 0.00 in0.0 mm 0.00 in0.0 mm 0.00 in0.0 mm
01:06 PM 59.9°F15.5°C 39.1°F3.9°C 46% 8.0 mph NNW12.9 kmh NNW 16.0 mph25.7 kmh 30.15 in1021.0 mb 0.00 in0.0 mm 0.00 in0.0 mm 0.00 in0.0 mm
01:08 PM 60.0°F15.6°C 39.7°F4.3°C 47% 12.0 mph NNW19.3 kmh NNW 16.0 mph25.7 kmh 30.15 in1021.0 mb 0.00 in0.0 mm 0.00 in0.0 mm 0.00 in0.0 mm
01:10 PM 60.2°F15.7°C 39.4°F4.1°C 46% 14.0 mph N22.5 kmh N 16.0 mph25.7 kmh 30.15 in1021.0 mb 0.00 in0.0 mm 0.00 in0.0 mm 0.00 in0.0 mm
01:12 PM 60.2°F15.7°C 39.4°F4.1°C 46% 17.0 mph NNW27.4 kmh NNW 17.0 mph27.4 kmh 30.14 in1020.7 mb 0.00 in0.0 mm 0.00 in0.0 mm 0.00 in0.0 mm
01:14 PM 60.3°F15.7°C 39.5°F4.2°C 46% 14.0 mph NW22.5 kmh NW 18.0 mph29.0 kmh 30.15 in1021.0 mb 0.00 in0.0 mm 0.00 in0.0 mm 0.00 in0.0 mm
01:15 PM 60.2°F15.7°C 39.4°F4.1°C 46% 14.0 mph NNW22.5 kmh NNW 19.0 mph30.6 kmh 30.15 in1021.0 mb 0.00 in0.0 mm 0.00 in0.0 mm 0.00 in0.0 mm
01:18 PM 60.2°F15.7°C 39.4°F4.1°C 46% 12.0 mph NNW19.3 kmh NNW 19.0 mph30.6 kmh 30.15 in1021.0 mb 0.00 in0.0 mm 0.00 in0.0 mm 0.00 in0.0 mm
01:20 PM 60.2°F15.7°C 39.4°F4.1°C 46% 11.0 mph NNW17.7 kmh NNW 19.0 mph30.6 kmh 30.15 in1021.0 mb 0.00 in0.0 mm 0.00 in0.0 mm 0.00 in0.0 mm
01:22 PM 60.3°F15.7°C 39.5°F4.2°C 46% 12.0 mph NNE19.3 kmh NNE 19.0 mph30.6 kmh 30.14 in1020.7 mb 0.00 in0.0 mm 0.00 in0.0 mm 0.00 in0.0 mm
01:24 PM 60.6°F15.9°C 39.7°F4.3°C 46% 10.0 mph N16.1 kmh N 19.0 mph30.6 kmh 30.15 in1021.0 mb 0.00 in0.0 mm 0.00 in0.0 mm 0.00 in0.0 mm
01:26 PM 60.8°F16.0°C 39.4°F4.1°C 45% 7.0 mph WNW11.3 kmh WNW 19.0 mph30.6 kmh 30.14 in1020.7 mb 0.00 in0.0 mm 0.00 in0.0 mm 0.00 in0.0 mm
01:28 PM 60.9°F16.1°C 40.0°F4.4°C 46% 15.0 mph NNW24.1 kmh NNW 19.0 mph30.6 kmh 30.14 in1020.7 mb 0.00 in0.0 mm 0.00 in0.0 mm 0.00 in0.0 mm
01:30 PM 60.8°F16.0°C 39.4°F4.1°C 45% 16.0 mph N25.7 kmh N 19.0 mph30.6 kmh 30.14 in1020.7 mb 0.00 in0.0 mm 0.00 in0.0 mm 0.00 in0.0 mm
01:32 PM 60.7°F15.9°C 39.3°F4.1°C 45% 4.0 mph NNE6.4 kmh NNE 19.0 mph30.6 kmh 30.14 in1020.7 mb 0.00 in0.0 mm 0.00 in0.0 mm 0.00 in0.0 mm
01:34 PM 60.7°F15.9°C 39.3°F4.1°C 45% 8.0 mph NW12.9 kmh NW 15.0 mph24.1 kmh 30.14 in1020.7 mb 0.00 in0.0 mm 0.00 in0.0 mm 0.00 in0.0 mm
01:36 PM 60.7°F15.9°C 39.8°F4.3°C 46% 9.0 mph NNW14.5 kmh NNW 15.0 mph24.1 kmh 30.14 in1020.7 mb 0.00 in0.0 mm 0.00 in0.0 mm 0.00 in0.0 mm
01:38 PM 60.9°F16.1°C 39.4°F4.1°C 45% 13.0 mph NNW20.9 kmh NNW 16.0 mph25.7 kmh 30.15 in1021.0 mb 0.00 in0.0 mm 0.00 in0.0 mm 0.00 in0.0 mm
01:40 PM 61.0°F16.1°C 39.5°F4.2°C 45% 13.0 mph NW20.9 kmh NW 16.0 mph25.7 kmh 30.15 in1021.0 mb 0.00 in0.0 mm 0.00 in0.0 mm 0.00 in0.0 mm
01:42 PM 60.7°F15.9°C 39.3°F4.1°C 45% 12.0 mph NW19.3 kmh NW 18.0 mph29.0 kmh 30.15 in1021.0 mb 0.00 in0.0 mm 0.00 in0.0 mm 0.00 in0.0 mm
01:44 PM 60.7°F15.9°C 39.3°F4.1°C 45% 13.0 mph NNW20.9 kmh NNW 18.0 mph29.0 kmh 30.15 in1021.0 mb 0.00 in0.0 mm 0.00 in0.0 mm 0.00 in0.0 mm
01:46 PM 60.7°F15.9°C 39.8°F4.3°C 46% 8.0 mph N12.9 kmh N 18.0 mph29.0 kmh 30.15 in1021.0 mb 0.00 in0.0 mm 0.00 in0.0 mm 0.00 in0.0 mm
01:48 PM 61.0°F16.1°C 39.5°F4.2°C 45% 9.0 mph WNW14.5 kmh WNW 18.0 mph29.0 kmh 30.15 in1021.0 mb 0.00 in0.0 mm 0.00 in0.0 mm 0.00 in0.0 mm
01:50 PM 61.2°F16.2°C 40.3°F4.6°C 46% 5.0 mph NNW8.0 kmh NNW 18.0 mph29.0 kmh 30.15 in1021.0 mb 0.00 in0.0 mm 0.00 in0.0 mm 0.00 in0.0 mm
01:52 PM 61.5°F16.4°C 40.0°F4.4°C 45% 3.0 mph NNW4.8 kmh NNW 18.0 mph29.0 kmh 30.15 in1021.0 mb 0.00 in0.0 mm 0.00 in0.0 mm 0.00 in0.0 mm
01:54 PM 61.7°F16.5°C 39.6°F4.2°C 44% 6.0 mph NW9.7 kmh NW 18.0 mph29.0 kmh 30.15 in1021.0 mb 0.00 in0.0 mm 0.00 in0.0 mm 0.00 in0.0 mm
01:56 PM 61.6°F16.4°C 39.5°F4.2°C 44% 9.0 mph N14.5 kmh N 18.0 mph29.0 kmh 30.15 in1021.0 mb 0.00 in0.0 mm 0.00 in0.0 mm 0.00 in0.0 mm
01:58 PM 61.5°F16.4°C 40.0°F4.4°C 45% 4.0 mph N6.4 kmh N 18.0 mph29.0 kmh 30.15 in1021.0 mb 0.00 in0.0 mm 0.00 in0.0 mm 0.00 in0.0 mm
02:00 PM 61.6°F16.4°C 40.1°F4.5°C 45% 5.0 mph NW8.0 kmh NW 18.0 mph29.0 kmh 30.15 in1021.0 mb 0.00 in0.0 mm 0.00 in0.0 mm 0.00 in0.0 mm
02:02 PM 61.5°F16.4°C 39.4°F4.1°C 44% 7.0 mph NE11.3 kmh NE 18.0 mph29.0 kmh 30.15 in1021.0 mb 0.00 in0.0 mm 0.00 in0.0 mm 0.00 in0.0 mm
02:04 PM 61.3°F16.3°C 39.8°F4.3°C 45% 9.0 mph NW14.5 kmh NW 17.0 mph27.4 kmh 30.15 in1021.0 mb 0.00 in0.0 mm 0.00 in0.0 mm 0.00 in0.0 mm
02:06 PM 61.2°F16.2°C 39.7°F4.3°C 45% 12.0 mph NW19.3 kmh NW 17.0 mph27.4 kmh 30.15 in1021.0 mb 0.00 in0.0 mm 0.00 in0.0 mm 0.00 in0.0 mm
02:08 PM 61.3°F16.3°C 39.8°F4.3°C 45% 9.0 mph NW14.5 kmh NW 17.0 mph27.4 kmh 30.14 in1020.7 mb 0.00 in0.0 mm 0.00 in0.0 mm 0.00 in0.0 mm
02:10 PM 61.4°F16.3°C 39.9°F4.4°C 45% 14.0 mph N22.5 kmh N 17.0 mph27.4 kmh 30.15 in1021.0 mb 0.00 in0.0 mm 0.00 in0.0 mm 0.00 in0.0 mm
02:12 PM 61.3°F16.3°C 39.2°F4.0°C 44% 6.0 mph NW9.7 kmh NW 17.0 mph27.4 kmh 30.15 in1021.0 mb 0.00 in0.0 mm 0.00 in0.0 mm 0.00 in0.0 mm
02:14 PM 61.2°F16.2°C 39.7°F4.3°C 45% 4.0 mph N6.4 kmh N 17.0 mph27.4 kmh 30.15 in1021.0 mb 0.00 in0.0 mm 0.00 in0.0 mm 0.00 in0.0 mm
02:16 PM 61.2°F16.2°C 39.7°F4.3°C 45% 12.0 mph NW19.3 kmh NW 17.0 mph27.4 kmh 30.15 in1021.0 mb 0.00 in0.0 mm 0.00 in0.0 mm 0.00 in0.0 mm
02:18 PM 61.1°F16.2°C 39.6°F4.2°C 45% 8.0 mph NW12.9 kmh NW 17.0 mph27.4 kmh 30.15 in1021.0 mb 0.00 in0.0 mm 0.00 in0.0 mm 0.00 in0.0 mm
02:20 PM 61.1°F16.2°C 39.6°F4.2°C 45% 5.0 mph NW8.0 kmh NW 17.0 mph27.4 kmh 30.14 in1020.7 mb 0.00 in0.0 mm 0.00 in0.0 mm 0.00 in0.0 mm
02:22 PM 61.0°F16.1°C 39.5°F4.2°C 45% 4.0 mph NW6.4 kmh NW 17.0 mph27.4 kmh 30.14 in1020.7 mb 0.00 in0.0 mm 0.00 in0.0 mm 0.00 in0.0 mm
02:24 PM 61.0°F16.1°C 39.5°F4.2°C 45% 12.0 mph NW19.3 kmh NW 17.0 mph27.4 kmh 30.14 in1020.7 mb 0.00 in0.0 mm 0.00 in0.0 mm 0.00 in0.0 mm
02:26 PM 61.2°F16.2°C 39.7°F4.3°C 45% 10.0 mph NNW16.1 kmh NNW 17.0 mph27.4 kmh 30.15 in1021.0 mb 0.00 in0.0 mm 0.00 in0.0 mm 0.00 in0.0 mm
02:28 PM 61.3°F16.3°C 39.8°F4.3°C 45% 10.0 mph NW16.1 kmh NW 17.0 mph27.4 kmh 30.15 in1021.0 mb 0.00 in0.0 mm 0.00 in0.0 mm 0.00 in0.0 mm
02:30 PM 61.2°F16.2°C 39.7°F4.3°C 45% 9.0 mph NW14.5 kmh NW 17.0 mph27.4 kmh 30.15 in1021.0 mb 0.00 in0.0 mm 0.00 in0.0 mm 0.00 in0.0 mm
02:32 PM 61.3°F16.3°C 39.2°F4.0°C 44% 10.0 mph NNW16.1 kmh NNW 17.0 mph27.4 kmh 30.15 in1021.0 mb 0.00 in0.0 mm 0.00 in0.0 mm 0.00 in0.0 mm
02:34 PM 61.3°F16.3°C 39.2°F4.0°C 44% 13.0 mph NNW20.9 kmh NNW 15.0 mph24.1 kmh 30.15 in1021.0 mb 0.00 in0.0 mm 0.00 in0.0 mm 0.00 in0.0 mm
02:36 PM 61.3°F16.3°C 39.2°F4.0°C 44% 8.0 mph NNE12.9 kmh NNE 16.0 mph25.7 kmh 30.15 in1021.0 mb 0.00 in0.0 mm 0.00 in0.0 mm 0.00 in0.0 mm
02:38 PM 61.1°F16.2°C 39.6°F4.2°C 45% 8.0 mph NNE12.9 kmh NNE 16.0 mph25.7 kmh 30.15 in1021.0 mb 0.00 in0.0 mm 0.00 in0.0 mm 0.00 in0.0 mm
02:40 PM 61.2°F16.2°C 39.7°F4.3°C 45% 11.0 mph NW17.7 kmh NW 16.0 mph25.7 kmh 30.15 in1021.0 mb 0.00 in0.0 mm 0.00 in0.0 mm 0.00 in0.0 mm
02:42 PM 61.2°F16.2°C 39.7°F4.3°C 45% 8.0 mph NW12.9 kmh NW 18.0 mph29.0 kmh 30.15 in1021.0 mb 0.00 in0.0 mm 0.00 in0.0 mm 0.00 in0.0 mm
02:44 PM 61.0°F16.1°C 39.5°F4.2°C 45% 11.0 mph NW17.7 kmh NW 18.0 mph29.0 kmh 30.15 in1021.0 mb 0.00 in0.0 mm 0.00 in0.0 mm 0.00 in0.0 mm
02:46 PM 61.0°F16.1°C 39.5°F4.2°C 45% 5.0 mph NNW8.0 kmh NNW 18.0 mph29.0 kmh 30.15 in1021.0 mb 0.00 in0.0 mm 0.00 in0.0 mm 0.00 in0.0 mm
02:48 PM 60.8°F16.0°C 39.4°F4.1°C 45% 11.0 mph NNW17.7 kmh NNW 18.0 mph29.0 kmh 30.16 in1021.3 mb 0.00 in0.0 mm 0.00 in0.0 mm 0.00 in0.0 mm
02:50 PM 60.7°F15.9°C 39.3°F4.1°C 45% 12.0 mph NNW19.3 kmh NNW 18.0 mph29.0 kmh 30.16 in1021.3 mb 0.00 in0.0 mm 0.00 in0.0 mm 0.00 in0.0 mm
02:52 PM 60.7°F15.9°C 39.3°F4.1°C 45% 9.0 mph NW14.5 kmh NW 18.0 mph29.0 kmh 30.16 in1021.3 mb 0.00 in0.0 mm 0.00 in0.0 mm 0.00 in0.0 mm
02:54 PM 60.7°F15.9°C 39.3°F4.1°C 45% 11.0 mph N17.7 kmh N 18.0 mph29.0 kmh 30.16 in1021.3 mb 0.00 in0.0 mm 0.00 in0.0 mm 0.00 in0.0 mm
02:56 PM 60.7°F15.9°C 39.3°F4.1°C 45% 11.0 mph NW17.7 kmh NW 18.0 mph29.0 kmh 30.16 in1021.3 mb 0.00 in0.0 mm 0.00 in0.0 mm 0.00 in0.0 mm
02:58 PM 60.7°F15.9°C 39.3°F4.1°C 45% 5.0 mph NW8.0 kmh NW 18.0 mph29.0 kmh 30.16 in1021.3 mb 0.00 in0.0 mm 0.00 in0.0 mm 0.00 in0.0 mm
03:00 PM 60.7°F15.9°C 39.3°F4.1°C 45% 13.0 mph NW20.9 kmh NW 19.0 mph30.6 kmh 30.16 in1021.3 mb 0.00 in0.0 mm 0.00 in0.0 mm 0.00 in0.0 mm
03:02 PM 60.6°F15.9°C 39.2°F4.0°C 45% 12.0 mph NW19.3 kmh NW 19.0 mph30.6 kmh 30.16 in1021.3 mb 0.00 in0.0 mm 0.00 in0.0 mm 0.00 in0.0 mm
03:04 PM 60.5°F15.8°C 39.1°F3.9°C 45% 14.0 mph NNW22.5 kmh NNW 15.0 mph24.1 kmh 30.16 in1021.3 mb 0.00 in0.0 mm 0.00 in0.0 mm 0.00 in0.0 mm
03:06 PM 60.3°F15.7°C 38.9°F3.8°C 45% 17.0 mph NW27.4 kmh NW 17.0 mph27.4 kmh 30.16 in1021.3 mb 0.00 in0.0 mm 0.00 in0.0 mm 0.00 in0.0 mm
03:08 PM 60.3°F15.7°C 39.5°F4.2°C 46% 10.0 mph N16.1 kmh N 17.0 mph27.4 kmh 30.16 in1021.3 mb 0.00 in0.0 mm 0.00 in0.0 mm 0.00 in0.0 mm
03:10 PM 60.4°F15.8°C 39.0°F3.9°C 45% 10.0 mph WNW16.1 kmh WNW 17.0 mph27.4 kmh 30.16 in1021.3 mb 0.00 in0.0 mm 0.00 in0.0 mm 0.00 in0.0 mm
03:12 PM 60.5°F15.8°C 39.1°F3.9°C 45% 10.0 mph NW16.1 kmh NW 17.0 mph27.4 kmh 30.16 in1021.3 mb 0.00 in0.0 mm 0.00 in0.0 mm 0.00 in0.0 mm
03:14 PM 60.6°F15.9°C 39.2°F4.0°C 45% 10.0 mph NNW16.1 kmh NNW 17.0 mph27.4 kmh 30.16 in1021.3 mb 0.00 in0.0 mm 0.00 in0.0 mm 0.00 in0.0 mm
03:16 PM 60.7°F15.9°C 39.3°F4.1°C 45% 13.0 mph NNW20.9 kmh NNW 17.0 mph27.4 kmh 30.16 in1021.3 mb 0.00 in0.0 mm 0.00 in0.0 mm 0.00 in0.0 mm
03:18 PM 60.8°F16.0°C 39.4°F4.1°C 45% 9.0 mph N14.5 kmh N 17.0 mph27.4 kmh 30.16 in1021.3 mb 0.00 in0.0 mm 0.00 in0.0 mm 0.00 in0.0 mm
03:20 PM 60.9°F16.1°C 39.4°F4.1°C 45% 12.0 mph NNW19.3 kmh NNW 17.0 mph27.4 kmh 30.17 in1021.7 mb 0.00 in0.0 mm 0.00 in0.0 mm 0.00 in0.0 mm
03:22 PM 60.8°F16.0°C 39.4°F4.1°C 45% 11.0 mph WNW17.7 kmh WNW 17.0 mph27.4 kmh 30.17 in1021.7 mb 0.00 in0.0 mm 0.00 in0.0 mm 0.00 in0.0 mm
03:24 PM 60.8°F16.0°C 39.4°F4.1°C 45% 6.0 mph NNW9.7 kmh NNW 17.0 mph27.4 kmh 30.17 in1021.7 mb 0.00 in0.0 mm 0.00 in0.0 mm 0.00 in0.0 mm
03:26 PM 60.8°F16.0°C 38.8°F3.8°C 44% 10.0 mph NNW16.1 kmh NNW 17.0 mph27.4 kmh 30.17 in1021.7 mb 0.00 in0.0 mm 0.00 in0.0 mm 0.00 in0.0 mm
03:28 PM 60.8°F16.0°C 39.4°F4.1°C 45% 6.0 mph N9.7 kmh N 17.0 mph27.4 kmh 30.17 in1021.7 mb 0.00 in0.0 mm 0.00 in0.0 mm 0.00 in0.0 mm
03:30 PM 60.9°F16.1°C 39.4°F4.1°C 45% 5.0 mph NW8.0 kmh NW 17.0 mph27.4 kmh 30.17 in1021.7 mb 0.00 in0.0 mm 0.00 in0.0 mm 0.00 in0.0 mm
03:32 PM 60.9°F16.1°C 39.4°F4.1°C 45% 10.0 mph N16.1 kmh N 17.0 mph27.4 kmh 30.17 in1021.7 mb 0.00 in0.0 mm 0.00 in0.0 mm 0.00 in0.0 mm
03:34 PM 60.8°F16.0°C 39.4°F4.1°C 45% 10.0 mph NNW16.1 kmh NNW 13.0 mph20.9 kmh 30.17 in1021.7 mb 0.00 in0.0 mm 0.00 in0.0 mm 0.00 in0.0 mm
03:36 PM 60.7°F15.9°C 39.3°F4.1°C 45% 11.0 mph NNE17.7 kmh NNE 13.0 mph20.9 kmh 30.17 in1021.7 mb 0.00 in0.0 mm 0.00 in0.0 mm 0.00 in0.0 mm
03:38 PM 60.8°F16.0°C 39.4°F4.1°C 45% 11.0 mph NNW17.7 kmh NNW 14.0 mph22.5 kmh 30.17 in1021.7 mb 0.00 in0.0 mm 0.00 in0.0 mm 0.00 in0.0 mm
03:40 PM 60.9°F16.1°C 39.4°F4.1°C 45% 15.0 mph NNW24.1 kmh NNW 15.0 mph24.1 kmh 30.17 in1021.7 mb 0.00 in0.0 mm 0.00 in0.0 mm 0.00 in0.0 mm
03:42 PM 60.8°F16.0°C 39.4°F4.1°C 45% 10.0 mph N16.1 kmh N 15.0 mph24.1 kmh 30.16 in1021.3 mb 0.00 in0.0 mm 0.00 in0.0 mm 0.00 in0.0 mm
03:44 PM 60.8°F16.0°C 39.4°F4.1°C 45% 13.0 mph NNW20.9 kmh NNW 15.0 mph24.1 kmh 30.16 in1021.3 mb 0.00 in0.0 mm 0.00 in0.0 mm 0.00 in0.0 mm
03:46 PM 60.8°F16.0°C 39.4°F4.1°C 45% 8.0 mph NW12.9 kmh NW 15.0 mph24.1 kmh 30.17 in1021.7 mb 0.00 in0.0 mm 0.00 in0.0 mm 0.00 in0.0 mm
03:48 PM 60.8°F16.0°C 38.8°F3.8°C 44% 10.0 mph NW16.1 kmh NW 15.0 mph24.1 kmh 30.17 in1021.7 mb 0.00 in0.0 mm 0.00 in0.0 mm 0.00 in0.0 mm
03:50 PM 60.7°F15.9°C 39.3°F4.1°C 45% 5.0 mph N8.0 kmh N 15.0 mph24.1 kmh 30.17 in1021.7 mb 0.00 in0.0 mm 0.00 in0.0 mm 0.00 in0.0 mm
03:52 PM 60.7°F15.9°C 39.3°F4.1°C 45% 12.0 mph NW19.3 kmh NW 15.0 mph24.1 kmh 30.17 in1021.7 mb 0.00 in0.0 mm 0.00 in0.0 mm 0.00 in0.0 mm
03:54 PM 60.6°F15.9°C 39.2°F4.0°C 45% 11.0 mph NW17.7 kmh NW 15.0 mph24.1 kmh 30.17 in1021.7 mb 0.00 in0.0 mm 0.00 in0.0 mm 0.00 in0.0 mm
03:56 PM 60.5°F15.8°C 39.1°F3.9°C 45% 16.0 mph NW25.7 kmh NW 16.0 mph25.7 kmh 30.17 in1021.7 mb 0.00 in0.0 mm 0.00 in0.0 mm 0.00 in0.0 mm
03:58 PM 60.5°F15.8°C 39.1°F3.9°C 45% 5.0 mph WNW8.0 kmh WNW 16.0 mph25.7 kmh 30.17 in1021.7 mb 0.00 in0.0 mm 0.00 in0.0 mm 0.00 in0.0 mm
04:00 PM 60.5°F15.8°C 39.1°F3.9°C 45% 10.0 mph NW16.1 kmh NW 16.0 mph25.7 kmh 30.17 in1021.7 mb 0.00 in0.0 mm 0.00 in0.0 mm 0.00 in0.0 mm
04:02 PM 60.4°F15.8°C 39.0°F3.9°C 45% 12.0 mph NW19.3 kmh NW 16.0 mph25.7 kmh 30.17 in1021.7 mb 0.00 in0.0 mm 0.00 in0.0 mm 0.00 in0.0 mm
04:04 PM 60.3°F15.7°C 38.9°F3.8°C 45% 14.0 mph NW22.5 kmh NW 15.0 mph24.1 kmh 30.18 in1022.0 mb 0.00 in0.0 mm 0.00 in0.0 mm 0.00 in0.0 mm
04:06 PM 60.3°F15.7°C 38.9°F3.8°C 45% 8.0 mph NW12.9 kmh NW 15.0 mph24.1 kmh 30.18 in1022.0 mb 0.00 in0.0 mm 0.00 in0.0 mm 0.00 in0.0 mm
04:08 PM 60.4°F15.8°C 39.0°F3.9°C 45% 5.0 mph NW8.0 kmh NW 15.0 mph24.1 kmh 30.18 in1022.0 mb 0.00 in0.0 mm 0.00 in0.0 mm 0.00 in0.0 mm
04:10 PM 60.4°F15.8°C 39.0°F3.9°C 45% 11.0 mph NW17.7 kmh NW 15.0 mph24.1 kmh 30.18 in1022.0 mb 0.00 in0.0 mm 0.00 in0.0 mm 0.00 in0.0 mm
04:12 PM 60.4°F15.8°C 39.0°F3.9°C 45% 10.0 mph NNW16.1 kmh NNW 15.0 mph24.1 kmh 30.18 in1022.0 mb 0.00 in0.0 mm 0.00 in0.0 mm 0.00 in0.0 mm
04:14 PM 60.4°F15.8°C 39.0°F3.9°C 45% 8.0 mph N12.9 kmh N 15.0 mph24.1 kmh 30.18 in1022.0 mb 0.00 in0.0 mm 0.00 in0.0 mm 0.00 in0.0 mm
04:16 PM 60.4°F15.8°C 39.0°F3.9°C 45% 11.0 mph NW17.7 kmh NW 15.0 mph24.1 kmh 30.18 in1022.0 mb 0.00 in0.0 mm 0.00 in0.0 mm 0.00 in0.0 mm
04:18 PM 60.4°F15.8°C 39.0°F3.9°C 45% 9.0 mph NW14.5 kmh NW 15.0 mph24.1 kmh 30.18 in1022.0 mb 0.00 in0.0 mm 0.00 in0.0 mm 0.00 in0.0 mm
04:20 PM 60.5°F15.8°C 39.1°F3.9°C 45% 9.0 mph NW14.5 kmh NW 15.0 mph24.1 kmh 30.18 in1022.0 mb 0.00 in0.0 mm 0.00 in0.0 mm 0.00 in0.0 mm
04:22 PM 60.5°F15.8°C 39.1°F3.9°C 45% 7.0 mph NW11.3 kmh NW 15.0 mph24.1 kmh 30.18 in1022.0 mb 0.00 in0.0 mm 0.00 in0.0 mm 0.00 in0.0 mm
04:24 PM 60.5°F15.8°C 39.1°F3.9°C 45% 4.0 mph NNW6.4 kmh NNW 15.0 mph24.1 kmh 30.18 in1022.0 mb 0.00 in0.0 mm 0.00 in0.0 mm 0.00 in0.0 mm
04:26 PM 60.6°F15.9°C 39.2°F4.0°C 45% 8.0 mph N12.9 kmh N 15.0 mph24.1 kmh 30.18 in1022.0 mb 0.00 in0.0 mm 0.00 in0.0 mm 0.00 in0.0 mm
04:28 PM 60.5°F15.8°C 39.6°F4.2°C 46% 9.0 mph NW14.5 kmh NW 15.0 mph24.1 kmh 30.18 in1022.0 mb 0.00 in0.0 mm 0.00 in0.0 mm 0.00 in0.0 mm
04:30 PM 60.4°F15.8°C 39.0°F3.9°C 45% 11.0 mph NW17.7 kmh NW 15.0 mph24.1 kmh 30.18 in1022.0 mb 0.00 in0.0 mm 0.00 in0.0 mm 0.00 in0.0 mm
04:32 PM 60.1°F15.6°C 38.7°F3.7°C 45% 12.0 mph NW19.3 kmh NW 15.0 mph24.1 kmh 30.18 in1022.0 mb 0.00 in0.0 mm 0.00 in0.0 mm 0.00 in0.0 mm
04:34 PM 59.9°F15.5°C 39.1°F3.9°C 46% 4.0 mph NW6.4 kmh NW 14.0 mph22.5 kmh 30.18 in1022.0 mb 0.00 in0.0 mm 0.00 in0.0 mm 0.00 in0.0 mm
04:36 PM 59.8°F15.4°C 39.0°F3.9°C 46% 9.0 mph NNW14.5 kmh NNW 14.0 mph22.5 kmh 30.18 in1022.0 mb 0.00 in0.0 mm 0.00 in0.0 mm 0.00 in0.0 mm
04:38 PM 59.8°F15.4°C 39.0°F3.9°C 46% 9.0 mph NNW14.5 kmh NNW 14.0 mph22.5 kmh 30.18 in1022.0 mb 0.00 in0.0 mm 0.00 in0.0 mm 0.00 in0.0 mm
04:40 PM 59.7°F15.4°C 38.9°F3.8°C 46% 9.0 mph N14.5 kmh N 14.0 mph22.5 kmh 30.18 in1022.0 mb 0.00 in0.0 mm 0.00 in0.0 mm 0.00 in0.0 mm
04:42 PM 59.6°F15.3°C 38.8°F3.8°C 46% 9.0 mph NW14.5 kmh NW 14.0 mph22.5 kmh 30.18 in1022.0 mb 0.00 in0.0 mm 0.00 in0.0 mm 0.00 in0.0 mm
04:43 PM 59.5°F15.3°C 39.3°F4.1°C 47% 6.0 mph NW9.7 kmh NW 14.0 mph22.5 kmh 30.18 in1022.0 mb 0.00 in0.0 mm 0.00 in0.0 mm 0.00 in0.0 mm
04:46 PM 59.6°F15.3°C 39.4°F4.1°C 47% 8.0 mph NW12.9 kmh NW 14.0 mph22.5 kmh 30.18 in1022.0 mb 0.00 in0.0 mm 0.00 in0.0 mm 0.00 in0.0 mm
04:48 PM 59.6°F15.3°C 39.4°F4.1°C 47% 10.0 mph NNW16.1 kmh NNW 14.0 mph22.5 kmh 30.18 in1022.0 mb 0.00 in0.0 mm 0.00 in0.0 mm 0.00 in0.0 mm
04:50 PM 59.6°F15.3°C 39.4°F4.1°C 47% 5.0 mph NW8.0 kmh NW 14.0 mph22.5 kmh 30.18 in1022.0 mb 0.00 in0.0 mm 0.00 in0.0 mm 0.00 in0.0 mm
04:52 PM 59.6°F15.3°C 39.4°F4.1°C 47% 5.0 mph NW8.0 kmh NW 14.0 mph22.5 kmh 30.18 in1022.0 mb 0.00 in0.0 mm 0.00 in0.0 mm 0.00 in0.0 mm
04:54 PM 59.6°F15.3°C 39.4°F4.1°C 47% 6.0 mph NW9.7 kmh NW 14.0 mph22.5 kmh 30.18 in1022.0 mb 0.00 in0.0 mm 0.00 in0.0 mm 0.00 in0.0 mm
04:56 PM 59.6°F15.3°C 39.4°F4.1°C 47% 8.0 mph NNW12.9 kmh NNW 14.0 mph22.5 kmh 30.18 in1022.0 mb 0.00 in0.0 mm 0.00 in0.0 mm 0.00 in0.0 mm
04:58 PM 59.6°F15.3°C 39.4°F4.1°C 47% 6.0 mph N9.7 kmh N 14.0 mph22.5 kmh 30.18 in1022.0 mb 0.00 in0.0 mm 0.00 in0.0 mm 0.00 in0.0 mm
05:00 PM 59.6°F15.3°C 39.4°F4.1°C 47% 10.0 mph NNW16.1 kmh NNW 14.0 mph22.5 kmh 30.19 in1022.4 mb 0.00 in0.0 mm 0.00 in0.0 mm 0.00 in0.0 mm
05:02 PM 59.6°F15.3°C 39.4°F4.1°C 47% 8.0 mph NW12.9 kmh NW 14.0 mph22.5 kmh 30.19 in1022.4 mb 0.00 in0.0 mm 0.00 in0.0 mm 0.00 in0.0 mm
05:04 PM 59.6°F15.3°C 39.4°F4.1°C 47% 3.0 mph NW4.8 kmh NW 11.0 mph17.7 kmh 30.19 in1022.4 mb 0.00 in0.0 mm 0.00 in0.0 mm 0.00 in0.0 mm
05:06 PM 59.6°F15.3°C 38.8°F3.8°C 46% 5.0 mph NNW8.0 kmh NNW 11.0 mph17.7 kmh 30.18 in1022.0 mb 0.00 in0.0 mm 0.00 in0.0 mm 0.00 in0.0 mm
05:08 PM 59.5°F15.3°C 38.7°F3.7°C 46% 9.0 mph NW14.5 kmh NW 12.0 mph19.3 kmh 30.18 in1022.0 mb 0.00 in0.0 mm 0.00 in0.0 mm 0.00 in0.0 mm
05:10 PM 59.4°F15.2°C 38.6°F3.7°C 46% 8.0 mph NW12.9 kmh NW 14.0 mph22.5 kmh 30.19 in1022.4 mb 0.00 in0.0 mm 0.00 in0.0 mm 0.00 in0.0 mm
05:12 PM 59.4°F15.2°C 38.6°F3.7°C 46% 8.0 mph N12.9 kmh N 15.0 mph24.1 kmh 30.19 in1022.4 mb 0.00 in0.0 mm 0.00 in0.0 mm 0.00 in0.0 mm
05:14 PM 59.3°F15.2°C 39.1°F3.9°C 47% 9.0 mph NNW14.5 kmh NNW 15.0 mph24.1 kmh 30.19 in1022.4 mb 0.00 in0.0 mm 0.00 in0.0 mm 0.00 in0.0 mm
05:16 PM 59.1°F15.1°C 38.9°F3.8°C 47% 8.0 mph N12.9 kmh N 15.0 mph24.1 kmh 30.19 in1022.4 mb 0.00 in0.0 mm 0.00 in0.0 mm 0.00 in0.0 mm
05:18 PM 59.1°F15.1°C 38.9°F3.8°C 47% 11.0 mph NW17.7 kmh NW 15.0 mph24.1 kmh 30.19 in1022.4 mb 0.00 in0.0 mm 0.00 in0.0 mm 0.00 in0.0 mm
05:20 PM 59.0°F15.0°C 38.8°F3.8°C 47% 8.0 mph N12.9 kmh N 15.0 mph24.1 kmh 30.19 in1022.4 mb 0.00 in0.0 mm 0.00 in0.0 mm 0.00 in0.0 mm
05:22 PM 58.9°F14.9°C 38.7°F3.7°C 47% 10.0 mph NNW16.1 kmh NNW 15.0 mph24.1 kmh 30.19 in1022.4 mb 0.00 in0.0 mm 0.00 in0.0 mm 0.00 in0.0 mm
05:24 PM 58.8°F14.9°C 38.6°F3.7°C 47% 5.0 mph NNW8.0 kmh NNW 15.0 mph24.1 kmh 30.18 in1022.0 mb 0.00 in0.0 mm 0.00 in0.0 mm 0.00 in0.0 mm
05:26 PM 58.8°F14.9°C 38.6°F3.7°C 47% 4.0 mph NW6.4 kmh NW 15.0 mph24.1 kmh 30.19 in1022.4 mb 0.00 in0.0 mm 0.00 in0.0 mm 0.00 in0.0 mm
05:28 PM 58.6°F14.8°C 39.0°F3.9°C 48% 5.0 mph N8.0 kmh N 15.0 mph24.1 kmh 30.18 in1022.0 mb 0.00 in0.0 mm 0.00 in0.0 mm 0.00 in0.0 mm
05:30 PM 58.6°F14.8°C 39.0°F3.9°C 48% 8.0 mph NNW12.9 kmh NNW 15.0 mph24.1 kmh 30.18 in1022.0 mb 0.00 in0.0 mm 0.00 in0.0 mm 0.00 in0.0 mm
05:32 PM 58.5°F14.7°C 38.9°F3.8°C 48% 8.0 mph NNW12.9 kmh NNW 15.0 mph24.1 kmh 30.18 in1022.0 mb 0.00 in0.0 mm 0.00 in0.0 mm 0.00 in0.0 mm
05:34 PM 58.4°F14.7°C 38.8°F3.8°C 48% 5.0 mph N8.0 kmh N 11.0 mph17.7 kmh 30.19 in1022.4 mb 0.00 in0.0 mm 0.00 in0.0 mm 0.00 in0.0 mm
05:36 PM 58.4°F14.7°C 38.8°F3.8°C 48% 3.0 mph NW4.8 kmh NW 11.0 mph17.7 kmh 30.19 in1022.4 mb 0.00 in0.0 mm 0.00 in0.0 mm 0.00 in0.0 mm
05:38 PM 58.3°F14.6°C 38.7°F3.7°C 48% 10.0 mph NW16.1 kmh NW 13.0 mph20.9 kmh 30.19 in1022.4 mb 0.00 in0.0 mm 0.00 in0.0 mm 0.00 in0.0 mm
05:40 PM 58.2°F14.6°C 38.6°F3.7°C 48% 7.0 mph NNE11.3 kmh NNE 13.0 mph20.9 kmh 30.19 in1022.4 mb 0.00 in0.0 mm 0.00 in0.0 mm 0.00 in0.0 mm
05:42 PM 58.1°F14.5°C 38.5°F3.6°C 48% 6.0 mph NW9.7 kmh NW 13.0 mph20.9 kmh 30.19 in1022.4 mb 0.00 in0.0 mm 0.00 in0.0 mm 0.00 in0.0 mm
05:44 PM 58.1°F14.5°C 38.5°F3.6°C 48% 8.0 mph NNW12.9 kmh NNW 13.0 mph20.9 kmh 30.19 in1022.4 mb 0.00 in0.0 mm 0.00 in0.0 mm 0.00 in0.0 mm
05:46 PM 58.0°F14.4°C 38.4°F3.6°C 48% 4.0 mph N6.4 kmh N 13.0 mph20.9 kmh 30.19 in1022.4 mb 0.00 in0.0 mm 0.00 in0.0 mm 0.00 in0.0 mm
05:48 PM 57.9°F14.4°C 38.4°F3.6°C 48% 2.0 mph NNW3.2 kmh NNW 13.0 mph20.9 kmh 30.20 in1022.7 mb 0.00 in0.0 mm 0.00 in0.0 mm 0.00 in0.0 mm
05:50 PM 57.8°F14.3°C 38.3°F3.5°C 48% 6.0 mph NNW9.7 kmh NNW 13.0 mph20.9 kmh 30.19 in1022.4 mb 0.00 in0.0 mm 0.00 in0.0 mm 0.00 in0.0 mm
05:52 PM 57.7°F14.3°C 38.2°F3.4°C 48% 6.0 mph N9.7 kmh N 13.0 mph20.9 kmh 30.20 in1022.7 mb 0.00 in0.0 mm 0.00 in0.0 mm 0.00 in0.0 mm
05:54 PM 57.6°F14.2°C 38.6°F3.7°C 49% 5.0 mph NNW8.0 kmh NNW 13.0 mph20.9 kmh 30.20 in1022.7 mb 0.00 in0.0 mm 0.00 in0.0 mm 0.00 in0.0 mm
05:56 PM 57.6°F14.2°C 38.6°F3.7°C 49% 5.0 mph N8.0 kmh N 13.0 mph20.9 kmh 30.20 in1022.7 mb 0.00 in0.0 mm 0.00 in0.0 mm 0.00 in0.0 mm
05:58 PM 57.5°F14.2°C 38.5°F3.6°C 49% 4.0 mph NW6.4 kmh NW 13.0 mph20.9 kmh 30.20 in1022.7 mb 0.00 in0.0 mm 0.00 in0.0 mm 0.00 in0.0 mm
06:00 PM 57.4°F14.1°C 38.4°F3.6°C 49% 1.0 mph NNW1.6 kmh NNW 13.0 mph20.9 kmh 30.20 in1022.7 mb 0.00 in0.0 mm 0.00 in0.0 mm 0.00 in0.0 mm
06:02 PM 57.4°F14.1°C 38.4°F3.6°C 49% 9.0 mph NNW14.5 kmh NNW 13.0 mph20.9 kmh 30.20 in1022.7 mb 0.00 in0.0 mm 0.00 in0.0 mm 0.00 in0.0 mm
06:04 PM 57.2°F14.0°C 38.2°F3.4°C 49% 3.0 mph NNW4.8 kmh NNW 9.0 mph14.5 kmh 30.21 in1023.0 mb 0.00 in0.0 mm 0.00 in0.0 mm 0.00 in0.0 mm
06:06 PM 57.2°F14.0°C 38.2°F3.4°C 49% 6.0 mph NW9.7 kmh NW 9.0 mph14.5 kmh 30.20 in1022.7 mb 0.00 in0.0 mm 0.00 in0.0 mm 0.00 in0.0 mm
06:08 PM 57.1°F13.9°C 38.1°F3.4°C 49% 5.0 mph NW8.0 kmh NW 10.0 mph16.1 kmh 30.21 in1023.0 mb 0.00 in0.0 mm 0.00 in0.0 mm 0.00 in0.0 mm
06:10 PM 57.1°F13.9°C 38.1°F3.4°C 49% 4.0 mph NNW6.4 kmh NNW 11.0 mph17.7 kmh 30.21 in1023.0 mb 0.00 in0.0 mm 0.00 in0.0 mm 0.00 in0.0 mm
06:12 PM 57.0°F13.9°C 38.6°F3.7°C 50% 6.0 mph N9.7 kmh N 11.0 mph17.7 kmh 30.21 in1023.0 mb 0.00 in0.0 mm 0.00 in0.0 mm 0.00 in0.0 mm
06:14 PM 56.9°F13.8°C 38.5°F3.6°C 50% 6.0 mph NNW9.7 kmh NNW 12.0 mph19.3 kmh 30.21 in1023.0 mb 0.00 in0.0 mm 0.00 in0.0 mm 0.00 in0.0 mm
06:16 PM 56.8°F13.8°C 38.4°F3.6°C 50% 6.0 mph NW9.7 kmh NW 12.0 mph19.3 kmh 30.21 in1023.0 mb 0.00 in0.0 mm 0.00 in0.0 mm 0.00 in0.0 mm
06:18 PM 56.7°F13.7°C 38.3°F3.5°C 50% 8.0 mph NNW12.9 kmh NNW 12.0 mph19.3 kmh 30.21 in1023.0 mb 0.00 in0.0 mm 0.00 in0.0 mm 0.00 in0.0 mm
06:20 PM 56.6°F13.7°C 38.2°F3.4°C 50% 10.0 mph NNW16.1 kmh NNW 12.0 mph19.3 kmh 30.21 in1023.0 mb 0.00 in0.0 mm 0.00 in0.0 mm 0.00 in0.0 mm
06:22 PM 56.5°F13.6°C 38.1°F3.4°C 50% 8.0 mph NW12.9 kmh NW 12.0 mph19.3 kmh 30.21 in1023.0 mb 0.00 in0.0 mm 0.00 in0.0 mm 0.00 in0.0 mm
06:24 PM 56.5°F13.6°C 38.1°F3.4°C 50% 8.0 mph NW12.9 kmh NW 12.0 mph19.3 kmh 30.21 in1023.0 mb 0.00 in0.0 mm 0.00 in0.0 mm 0.00 in0.0 mm
06:26 PM 56.4°F13.6°C 38.0°F3.3°C 50% 8.0 mph N12.9 kmh N 14.0 mph22.5 kmh 30.22 in1023.4 mb 0.00 in0.0 mm 0.00 in0.0 mm 0.00 in0.0 mm
06:28 PM 56.4°F13.6°C 38.0°F3.3°C 50% 8.0 mph N12.9 kmh N 14.0 mph22.5 kmh 30.22 in1023.4 mb 0.00 in0.0 mm 0.00 in0.0 mm 0.00 in0.0 mm
06:30 PM 56.3°F13.5°C 37.9°F3.3°C 50% 5.0 mph NNW8.0 kmh NNW 14.0 mph22.5 kmh 30.22 in1023.4 mb 0.00 in0.0 mm 0.00 in0.0 mm 0.00 in0.0 mm
06:32 PM 56.3°F13.5°C 38.4°F3.6°C 51% 9.0 mph NNW14.5 kmh NNW 14.0 mph22.5 kmh 30.22 in1023.4 mb 0.00 in0.0 mm 0.00 in0.0 mm 0.00 in0.0 mm
06:34 PM 56.2°F13.4°C 38.3°F3.5°C 51% 5.0 mph NNW8.0 kmh NNW 8.0 mph12.9 kmh 30.22 in1023.4 mb 0.00 in0.0 mm 0.00 in0.0 mm 0.00 in0.0 mm
06:36 PM 56.1°F13.4°C 38.2°F3.4°C 51% 6.0 mph NNW9.7 kmh NNW 12.0 mph19.3 kmh 30.22 in1023.4 mb 0.00 in0.0 mm 0.00 in0.0 mm 0.00 in0.0 mm
06:38 PM 56.0°F13.3°C 38.2°F3.4°C 51% 5.0 mph N8.0 kmh N 12.0 mph19.3 kmh 30.22 in1023.4 mb 0.00 in0.0 mm 0.00 in0.0 mm 0.00 in0.0 mm
06:40 PM 55.9°F13.3°C 38.1°F3.4°C 51% 4.0 mph NW6.4 kmh NW 12.0 mph19.3 kmh 30.22 in1023.4 mb 0.00 in0.0 mm 0.00 in0.0 mm 0.00 in0.0 mm
06:42 PM 55.8°F13.2°C 38.0°F3.3°C 51% 2.0 mph NNE3.2 kmh NNE 12.0 mph19.3 kmh 30.22 in1023.4 mb 0.00 in0.0 mm 0.00 in0.0 mm 0.00 in0.0 mm
06:44 PM 55.8°F13.2°C 38.0°F3.3°C 51% 8.0 mph NNW12.9 kmh NNW 12.0 mph19.3 kmh 30.22 in1023.4 mb 0.00 in0.0 mm 0.00 in0.0 mm 0.00 in0.0 mm
06:46 PM 55.6°F13.1°C 38.3°F3.5°C 52% 4.0 mph N6.4 kmh N 12.0 mph19.3 kmh 30.22 in1023.4 mb 0.00 in0.0 mm 0.00 in0.0 mm 0.00 in0.0 mm
06:48 PM 55.6°F13.1°C 38.3°F3.5°C 52% 5.0 mph NNW8.0 kmh NNW 12.0 mph19.3 kmh 30.22 in1023.4 mb 0.00 in0.0 mm 0.00 in0.0 mm 0.00 in0.0 mm
06:50 PM 55.5°F13.1°C 38.2°F3.4°C 52% 5.0 mph NNW8.0 kmh NNW 12.0 mph19.3 kmh 30.22 in1023.4 mb 0.00 in0.0 mm 0.00 in0.0 mm 0.00 in0.0 mm
06:52 PM 55.4°F13.0°C 38.1°F3.4°C 52% 5.0 mph N8.0 kmh N 12.0 mph19.3 kmh 30.23 in1023.7 mb 0.00 in0.0 mm 0.00 in0.0 mm 0.00 in0.0 mm
06:54 PM 55.3°F12.9°C 38.0°F3.3°C 52% 5.0 mph NNW8.0 kmh NNW 12.0 mph19.3 kmh 30.23 in1023.7 mb 0.00 in0.0 mm 0.00 in0.0 mm 0.00 in0.0 mm
06:56 PM 55.2°F12.9°C 37.9°F3.3°C 52% 6.0 mph NW9.7 kmh NW 12.0 mph19.3 kmh 30.23 in1023.7 mb 0.00 in0.0 mm 0.00 in0.0 mm 0.00 in0.0 mm
06:58 PM 55.2°F12.9°C 38.4°F3.6°C 53% 5.0 mph NNW8.0 kmh NNW 12.0 mph19.3 kmh 30.23 in1023.7 mb 0.00 in0.0 mm 0.00 in0.0 mm 0.00 in0.0 mm
07:00 PM 55.1°F12.8°C 38.3°F3.5°C 53% 8.0 mph NW12.9 kmh NW 12.0 mph19.3 kmh 30.23 in1023.7 mb 0.00 in0.0 mm 0.00 in0.0 mm 0.00 in0.0 mm
07:02 PM 55.0°F12.8°C 37.7°F3.2°C 52% 6.0 mph NW9.7 kmh NW 12.0 mph19.3 kmh 30.23 in1023.7 mb 0.00 in0.0 mm 0.00 in0.0 mm 0.00 in0.0 mm
07:04 PM 55.0°F12.8°C 38.2°F3.4°C 53% 4.0 mph NW6.4 kmh NW 13.0 mph20.9 kmh 30.23 in1023.7 mb 0.00 in0.0 mm 0.00 in0.0 mm 0.00 in0.0 mm
07:06 PM 54.9°F12.7°C 38.1°F3.4°C 53% 2.0 mph N3.2 kmh N 13.0 mph20.9 kmh 30.23 in1023.7 mb 0.00 in0.0 mm 0.00 in0.0 mm 0.00 in0.0 mm
07:08 PM 54.8°F12.7°C 38.0°F3.3°C 53% 11.0 mph NNW17.7 kmh NNW 13.0 mph20.9 kmh 30.23 in1023.7 mb 0.00 in0.0 mm 0.00 in0.0 mm 0.00 in0.0 mm
07:10 PM 54.8°F12.7°C 38.0°F3.3°C 53% 11.0 mph NNW17.7 kmh NNW 13.0 mph20.9 kmh 30.23 in1023.7 mb 0.00 in0.0 mm 0.00 in0.0 mm 0.00 in0.0 mm
07:12 PM 54.7°F12.6°C 37.9°F3.3°C 53% 8.0 mph NNE12.9 kmh NNE 13.0 mph20.9 kmh 30.23 in1023.7 mb 0.00 in0.0 mm 0.00 in0.0 mm 0.00 in0.0 mm
07:14 PM 54.6°F12.6°C 37.8°F3.2°C 53% 5.0 mph NW8.0 kmh NW 13.0 mph20.9 kmh 30.23 in1023.7 mb 0.00 in0.0 mm 0.00 in0.0 mm 0.00 in0.0 mm
07:16 PM 54.5°F12.5°C 37.7°F3.2°C 53% 8.0 mph WNW12.9 kmh WNW 13.0 mph20.9 kmh 30.23 in1023.7 mb 0.00 in0.0 mm 0.00 in0.0 mm 0.00 in0.0 mm
07:18 PM 54.5°F12.5°C 37.7°F3.2°C 53% 8.0 mph NNW12.9 kmh NNW 13.0 mph20.9 kmh 30.23 in1023.7 mb 0.00 in0.0 mm 0.00 in0.0 mm 0.00 in0.0 mm
07:20 PM 54.4°F12.4°C 37.6°F3.1°C 53% 5.0 mph NW8.0 kmh NW 13.0 mph20.9 kmh 30.23 in1023.7 mb 0.00 in0.0 mm 0.00 in0.0 mm 0.00 in0.0 mm
07:22 PM 54.3°F12.4°C 37.6°F3.1°C 53% 8.0 mph NNW12.9 kmh NNW 13.0 mph20.9 kmh 30.24 in1024.0 mb 0.00 in0.0 mm 0.00 in0.0 mm 0.00 in0.0 mm
07:24 PM 54.2°F12.3°C 37.9°F3.3°C 54% 8.0 mph NNW12.9 kmh NNW 13.0 mph20.9 kmh 30.24 in1024.0 mb 0.00 in0.0 mm 0.00 in0.0 mm 0.00 in0.0 mm
07:26 PM 54.2°F12.3°C 37.9°F3.3°C 54% 8.0 mph N12.9 kmh N 13.0 mph20.9 kmh 30.24 in1024.0 mb 0.00 in0.0 mm 0.00 in0.0 mm 0.00 in0.0 mm
07:28 PM 54.1°F12.3°C 37.8°F3.2°C 54% 5.0 mph NW8.0 kmh NW 13.0 mph20.9 kmh 30.24 in1024.0 mb 0.00 in0.0 mm 0.00 in0.0 mm 0.00 in0.0 mm
07:30 PM 54.0°F12.2°C 37.8°F3.2°C 54% 9.0 mph NNW14.5 kmh NNW 13.0 mph20.9 kmh 30.24 in1024.0 mb 0.00 in0.0 mm 0.00 in0.0 mm 0.00 in0.0 mm
07:32 PM 54.0°F12.2°C 37.8°F3.2°C 54% 10.0 mph NW16.1 kmh NW 13.0 mph20.9 kmh 30.24 in1024.0 mb 0.00 in0.0 mm 0.00 in0.0 mm 0.00 in0.0 mm
07:34 PM 53.9°F12.2°C 37.7°F3.2°C 54% 8.0 mph NW12.9 kmh NW 10.0 mph16.1 kmh 30.24 in1024.0 mb 0.00 in0.0 mm 0.00 in0.0 mm 0.00 in0.0 mm
07:36 PM 53.8°F12.1°C 37.6°F3.1°C 54% 11.0 mph NNW17.7 kmh NNW 12.0 mph19.3 kmh 30.24 in1024.0 mb 0.00 in0.0 mm 0.00 in0.0 mm 0.00 in0.0 mm
07:38 PM 53.7°F12.1°C 37.5°F3.1°C 54% 9.0 mph NW14.5 kmh NW 12.0 mph19.3 kmh 30.24 in1024.0 mb 0.00 in0.0 mm 0.00 in0.0 mm 0.00 in0.0 mm
07:40 PM 53.7°F12.1°C 37.5°F3.1°C 54% 6.0 mph N9.7 kmh N 12.0 mph19.3 kmh 30.24 in1024.0 mb 0.00 in0.0 mm 0.00 in0.0 mm 0.00 in0.0 mm
07:42 PM 53.6°F12.0°C 37.4°F3.0°C 54% 8.0 mph NW12.9 kmh NW 12.0 mph19.3 kmh 30.24 in1024.0 mb 0.00 in0.0 mm 0.00 in0.0 mm 0.00 in0.0 mm
07:44 PM 53.6°F12.0°C 37.4°F3.0°C 54% 10.0 mph NNW16.1 kmh NNW 14.0 mph22.5 kmh 30.24 in1024.0 mb 0.00 in0.0 mm 0.00 in0.0 mm 0.00 in0.0 mm
07:46 PM 53.5°F11.9°C 37.8°F3.2°C 55% 8.0 mph N12.9 kmh N 14.0 mph22.5 kmh 30.24 in1024.0 mb 0.00 in0.0 mm 0.00 in0.0 mm 0.00 in0.0 mm
07:48 PM 53.5°F11.9°C 37.8°F3.2°C 55% 6.0 mph NNW9.7 kmh NNW 14.0 mph22.5 kmh 30.24 in1024.0 mb 0.00 in0.0 mm 0.00 in0.0 mm 0.00 in0.0 mm
07:50 PM 53.4°F11.9°C 37.7°F3.2°C 55% 9.0 mph N14.5 kmh N 14.0 mph22.5 kmh 30.24 in1024.0 mb 0.00 in0.0 mm 0.00 in0.0 mm 0.00 in0.0 mm
07:52 PM 53.3°F11.8°C 37.6°F3.1°C 55% 8.0 mph NW12.9 kmh NW 14.0 mph22.5 kmh 30.24 in1024.0 mb 0.00 in0.0 mm 0.00 in0.0 mm 0.00 in0.0 mm
07:54 PM 53.2°F11.8°C 37.5°F3.1°C 55% 9.0 mph NNW14.5 kmh NNW 14.0 mph22.5 kmh 30.24 in1024.0 mb 0.00 in0.0 mm 0.00 in0.0 mm 0.00 in0.0 mm
07:56 PM 53.1°F11.7°C 37.4°F3.0°C 55% 6.0 mph NW9.7 kmh NW 14.0 mph22.5 kmh 30.24 in1024.0 mb 0.00 in0.0 mm 0.00 in0.0 mm 0.00 in0.0 mm
07:58 PM 53.0°F11.7°C 37.7°F3.2°C 56% 5.0 mph N8.0 kmh N 14.0 mph22.5 kmh 30.25 in1024.4 mb 0.00 in0.0 mm 0.00 in0.0 mm 0.00 in0.0 mm
08:00 PM 52.9°F11.6°C 37.7°F3.2°C 56% 2.0 mph N3.2 kmh N 14.0 mph22.5 kmh 30.25 in1024.4 mb 0.00 in0.0 mm 0.00 in0.0 mm 0.00 in0.0 mm
08:02 PM 52.9°F11.6°C 37.7°F3.2°C 56% 9.0 mph NNW14.5 kmh NNW 14.0 mph22.5 kmh 30.25 in1024.4 mb 0.00 in0.0 mm 0.00 in0.0 mm 0.00 in0.0 mm
08:04 PM 52.8°F11.6°C 37.6°F3.1°C 56% 10.0 mph NW16.1 kmh NW 11.0 mph17.7 kmh 30.25 in1024.4 mb 0.00 in0.0 mm 0.00 in0.0 mm 0.00 in0.0 mm
08:06 PM 52.8°F11.6°C 37.6°F3.1°C 56% 11.0 mph NNW17.7 kmh NNW 13.0 mph20.9 kmh 30.25 in1024.4 mb 0.00 in0.0 mm 0.00 in0.0 mm 0.00 in0.0 mm
08:08 PM 52.8°F11.6°C 37.6°F3.1°C 56% 9.0 mph NW14.5 kmh NW 13.0 mph20.9 kmh 30.25 in1024.4 mb 0.00 in0.0 mm 0.00 in0.0 mm 0.00 in0.0 mm
08:10 PM 52.7°F11.5°C 37.5°F3.1°C 56% 6.0 mph NNW9.7 kmh NNW 13.0 mph20.9 kmh 30.25 in1024.4 mb 0.00 in0.0 mm 0.00 in0.0 mm 0.00 in0.0 mm
08:12 PM 52.6°F11.4°C 37.4°F3.0°C 56% 4.0 mph NNW6.4 kmh NNW 13.0 mph20.9 kmh 30.25 in1024.4 mb 0.00 in0.0 mm 0.00 in0.0 mm 0.00 in0.0 mm
08:14 PM 52.5°F11.4°C 37.7°F3.2°C 57% 6.0 mph NNW9.7 kmh NNW 13.0 mph20.9 kmh 30.25 in1024.4 mb 0.00 in0.0 mm 0.00 in0.0 mm 0.00 in0.0 mm
08:16 PM 52.4°F11.3°C 37.6°F3.1°C 57% 8.0 mph NNW12.9 kmh NNW 13.0 mph20.9 kmh 30.25 in1024.4 mb 0.00 in0.0 mm 0.00 in0.0 mm 0.00 in0.0 mm
08:18 PM 52.3°F11.3°C 37.5°F3.1°C 57% 8.0 mph NW12.9 kmh NW 13.0 mph20.9 kmh 30.25 in1024.4 mb 0.00 in0.0 mm 0.00 in0.0 mm 0.00 in0.0 mm
08:20 PM 52.2°F11.2°C 37.4°F3.0°C 57% 5.0 mph NNW8.0 kmh NNW 13.0 mph20.9 kmh 30.26 in1024.7 mb 0.00 in0.0 mm 0.00 in0.0 mm 0.00 in0.0 mm
08:22 PM 52.1°F11.2°C 37.4°F3.0°C 57% 9.0 mph NNW14.5 kmh NNW 13.0 mph20.9 kmh 30.26 in1024.7 mb 0.00 in0.0 mm 0.00 in0.0 mm 0.00 in0.0 mm
08:24 PM 52.0°F11.1°C 37.7°F3.2°C 58% 8.0 mph NW12.9 kmh NW 13.0 mph20.9 kmh 30.26 in1024.7 mb 0.00 in0.0 mm 0.00 in0.0 mm 0.00 in0.0 mm
08:26 PM 51.9°F11.1°C 37.6°F3.1°C 58% 9.0 mph NNW14.5 kmh NNW 13.0 mph20.9 kmh 30.26 in1024.7 mb 0.00 in0.0 mm 0.00 in0.0 mm 0.00 in0.0 mm
08:28 PM 51.8°F11.0°C 37.5°F3.1°C 58% 6.0 mph NNW9.7 kmh NNW 13.0 mph20.9 kmh 30.26 in1024.7 mb 0.00 in0.0 mm 0.00 in0.0 mm 0.00 in0.0 mm
08:30 PM 51.7°F10.9°C 37.4°F3.0°C 58% 6.0 mph N9.7 kmh N 13.0 mph20.9 kmh 30.26 in1024.7 mb 0.00 in0.0 mm 0.00 in0.0 mm 0.00 in0.0 mm
08:32 PM 51.7°F10.9°C 37.4°F3.0°C 58% 8.0 mph NW12.9 kmh NW 13.0 mph20.9 kmh 30.26 in1024.7 mb 0.00 in0.0 mm 0.00 in0.0 mm 0.00 in0.0 mm
08:34 PM 51.5°F10.8°C 37.2°F2.9°C 58% 11.0 mph NNW17.7 kmh NNW 11.0 mph17.7 kmh 30.26 in1024.7 mb 0.00 in0.0 mm 0.00 in0.0 mm 0.00 in0.0 mm
08:36 PM 51.5°F10.8°C 37.2°F2.9°C 58% 10.0 mph NNW16.1 kmh NNW 11.0 mph17.7 kmh 30.26 in1024.7 mb 0.00 in0.0 mm 0.00 in0.0 mm 0.00 in0.0 mm
08:38 PM 51.5°F10.8°C 37.2°F2.9°C 58% 6.0 mph NW9.7 kmh NW 11.0 mph17.7 kmh 30.26 in1024.7 mb 0.00 in0.0 mm 0.00 in0.0 mm 0.00 in0.0 mm
08:40 PM 51.4°F10.8°C 37.6°F3.1°C 59% 4.0 mph NW6.4 kmh NW 11.0 mph17.7 kmh 30.26 in1024.7 mb 0.00 in0.0 mm 0.00 in0.0 mm 0.00 in0.0 mm
08:42 PM 51.3°F10.7°C 37.5°F3.1°C 59% 10.0 mph N16.1 kmh N 11.0 mph17.7 kmh 30.26 in1024.7 mb 0.00 in0.0 mm 0.00 in0.0 mm 0.00 in0.0 mm
08:44 PM 51.3°F10.7°C 37.5°F3.1°C 59% 10.0 mph NNW16.1 kmh NNW 11.0 mph17.7 kmh 30.26 in1024.7 mb 0.00 in0.0 mm 0.00 in0.0 mm 0.00 in0.0 mm
08:46 PM 51.2°F10.7°C 37.4°F3.0°C 59% 8.0 mph NW12.9 kmh NW 11.0 mph17.7 kmh 30.26 in1024.7 mb 0.00 in0.0 mm 0.00 in0.0 mm 0.00 in0.0 mm
08:47 PM 51.2°F10.7°C 37.4°F3.0°C 59% 10.0 mph NW16.1 kmh NW 11.0 mph17.7 kmh 30.26 in1024.7 mb 0.00 in0.0 mm 0.00 in0.0 mm 0.00 in0.0 mm
08:50 PM 51.1°F10.6°C 37.3°F2.9°C 59% 4.0 mph NW6.4 kmh NW 11.0 mph17.7 kmh 30.26 in1024.7 mb 0.00 in0.0 mm 0.00 in0.0 mm 0.00 in0.0 mm
08:52 PM 51.0°F10.6°C 37.2°F2.9°C 59% 4.0 mph NW6.4 kmh NW 11.0 mph17.7 kmh 30.26 in1024.7 mb 0.00 in0.0 mm 0.00 in0.0 mm 0.00 in0.0 mm
08:54 PM 51.0°F10.6°C 37.2°F2.9°C 59% 8.0 mph NW12.9 kmh NW 11.0 mph17.7 kmh 30.26 in1024.7 mb 0.00 in0.0 mm 0.00 in0.0 mm 0.00 in0.0 mm
08:56 PM 50.9°F10.5°C 37.1°F2.8°C 59% 8.0 mph NNE12.9 kmh NNE 11.0 mph17.7 kmh 30.26 in1024.7 mb 0.00 in0.0 mm 0.00 in0.0 mm 0.00 in0.0 mm
08:58 PM 50.9°F10.5°C 37.1°F2.8°C 59% 3.0 mph NNW4.8 kmh NNW 11.0 mph17.7 kmh 30.26 in1024.7 mb 0.00 in0.0 mm 0.00 in0.0 mm 0.00 in0.0 mm
09:00 PM 50.8°F10.4°C 37.4°F3.0°C 60% 4.0 mph N6.4 kmh N 11.0 mph17.7 kmh 30.26 in1024.7 mb 0.00 in0.0 mm 0.00 in0.0 mm 0.00 in0.0 mm
09:02 PM 50.7°F10.4°C 37.3°F2.9°C 60% 6.0 mph N9.7 kmh N 12.0 mph19.3 kmh 30.26 in1024.7 mb 0.00 in0.0 mm 0.00 in0.0 mm 0.00 in0.0 mm
09:04 PM 50.7°F10.4°C 37.3°F2.9°C 60% 6.0 mph NW9.7 kmh NW 12.0 mph19.3 kmh 30.26 in1024.7 mb 0.00 in0.0 mm 0.00 in0.0 mm 0.00 in0.0 mm
09:06 PM 50.6°F10.3°C 37.2°F2.9°C 60% 6.0 mph N9.7 kmh N 12.0 mph19.3 kmh 30.26 in1024.7 mb 0.00 in0.0 mm 0.00 in0.0 mm 0.00 in0.0 mm
09:08 PM 50.6°F10.3°C 37.2°F2.9°C 60% 6.0 mph NNE9.7 kmh NNE 12.0 mph19.3 kmh 30.26 in1024.7 mb 0.00 in0.0 mm 0.00 in0.0 mm 0.00 in0.0 mm
09:10 PM 50.6°F10.3°C 37.2°F2.9°C 60% 8.0 mph N12.9 kmh N 12.0 mph19.3 kmh 30.26 in1024.7 mb 0.00 in0.0 mm 0.00 in0.0 mm 0.00 in0.0 mm
09:12 PM 50.5°F10.3°C 37.2°F2.9°C 60% 4.0 mph N6.4 kmh N 12.0 mph19.3 kmh 30.26 in1024.7 mb 0.00 in0.0 mm 0.00 in0.0 mm 0.00 in0.0 mm
09:14 PM 50.5°F10.3°C 37.2°F2.9°C 60% 5.0 mph N8.0 kmh N 12.0 mph19.3 kmh 30.26 in1024.7 mb 0.00 in0.0 mm 0.00 in0.0 mm 0.00 in0.0 mm
09:16 PM 50.5°F10.3°C 37.2°F2.9°C 60% 6.0 mph NNW9.7 kmh NNW 12.0 mph19.3 kmh 30.26 in1024.7 mb 0.00 in0.0 mm 0.00 in0.0 mm 0.00 in0.0 mm
09:18 PM 50.5°F10.3°C 37.2°F2.9°C 60% 8.0 mph NW12.9 kmh NW 14.0 mph22.5 kmh 30.26 in1024.7 mb 0.00 in0.0 mm 0.00 in0.0 mm 0.00 in0.0 mm
09:20 PM 50.4°F10.2°C 37.1°F2.8°C 60% 9.0 mph NW14.5 kmh NW 14.0 mph22.5 kmh 30.26 in1024.7 mb 0.00 in0.0 mm 0.00 in0.0 mm 0.00 in0.0 mm
09:22 PM 50.4°F10.2°C 37.1°F2.8°C 60% 6.0 mph NW9.7 kmh NW 14.0 mph22.5 kmh 30.26 in1024.7 mb 0.00 in0.0 mm 0.00 in0.0 mm 0.00 in0.0 mm
09:24 PM 50.4°F10.2°C 37.1°F2.8°C 60% 8.0 mph N12.9 kmh N 14.0 mph22.5 kmh 30.26 in1024.7 mb 0.00 in0.0 mm 0.00 in0.0 mm 0.00 in0.0 mm
09:26 PM 50.3°F10.2°C 37.0°F2.8°C 60% 9.0 mph NW14.5 kmh NW 14.0 mph22.5 kmh 30.26 in1024.7 mb 0.00 in0.0 mm 0.00 in0.0 mm 0.00 in0.0 mm
09:28 PM 50.2°F10.1°C 36.9°F2.7°C 60% 4.0 mph N6.4 kmh N 14.0 mph22.5 kmh 30.26 in1024.7 mb 0.00 in0.0 mm 0.00 in0.0 mm 0.00 in0.0 mm
09:30 PM 50.2°F10.1°C 36.9°F2.7°C 60% 5.0 mph N8.0 kmh N 14.0 mph22.5 kmh 30.26 in1024.7 mb 0.00 in0.0 mm 0.00 in0.0 mm 0.00 in0.0 mm
09:32 PM 50.2°F10.1°C 36.9°F2.7°C 60% 12.0 mph N19.3 kmh N 16.0 mph25.7 kmh 30.26 in1024.7 mb 0.00 in0.0 mm 0.00 in0.0 mm 0.00 in0.0 mm
09:34 PM 50.2°F10.1°C 36.9°F2.7°C 60% 7.0 mph NNE11.3 kmh NNE 11.0 mph17.7 kmh 30.26 in1024.7 mb 0.00 in0.0 mm 0.00 in0.0 mm 0.00 in0.0 mm
09:36 PM 50.2°F10.1°C 36.9°F2.7°C 60% 6.0 mph NW9.7 kmh NW 11.0 mph17.7 kmh 30.26 in1024.7 mb 0.00 in0.0 mm 0.00 in0.0 mm 0.00 in0.0 mm
09:38 PM 50.1°F10.1°C 36.8°F2.7°C 60% 13.0 mph N20.9 kmh N 13.0 mph20.9 kmh 30.27 in1025.1 mb 0.00 in0.0 mm 0.00 in0.0 mm 0.00 in0.0 mm
09:40 PM 50.1°F10.1°C 36.8°F2.7°C 60% 12.0 mph NW19.3 kmh NW 13.0 mph20.9 kmh 30.26 in1024.7 mb 0.00 in0.0 mm 0.00 in0.0 mm 0.00 in0.0 mm
09:42 PM 50.1°F10.1°C 36.8°F2.7°C 60% 4.0 mph NNW6.4 kmh NNW 14.0 mph22.5 kmh 30.27 in1025.1 mb 0.00 in0.0 mm 0.00 in0.0 mm 0.00 in0.0 mm
09:44 PM 50.0°F10.0°C 36.7°F2.6°C 60% 8.0 mph N12.9 kmh N 14.0 mph22.5 kmh 30.26 in1024.7 mb 0.00 in0.0 mm 0.00 in0.0 mm 0.00 in0.0 mm
09:46 PM 50.0°F10.0°C 36.7°F2.6°C 60% 8.0 mph NW12.9 kmh NW 14.0 mph22.5 kmh 30.26 in1024.7 mb 0.00 in0.0 mm 0.00 in0.0 mm 0.00 in0.0 mm
09:48 PM 49.8°F9.9°C 36.5°F2.5°C 60% 6.0 mph NNW9.7 kmh NNW 14.0 mph22.5 kmh 30.26 in1024.7 mb 0.00 in0.0 mm 0.00 in0.0 mm 0.00 in0.0 mm
09:50 PM 49.7°F9.8°C 36.8°F2.7°C 61% 10.0 mph NW16.1 kmh NW 14.0 mph22.5 kmh 30.26 in1024.7 mb 0.00 in0.0 mm 0.00 in0.0 mm 0.00 in0.0 mm
09:52 PM 49.7°F9.8°C 36.8°F2.7°C 61% 2.0 mph N3.2 kmh N 14.0 mph22.5 kmh 30.26 in1024.7 mb 0.00 in0.0 mm 0.00 in0.0 mm 0.00 in0.0 mm
09:53 PM 49.6°F9.8°C 36.7°F2.6°C 61% 4.0 mph N6.4 kmh N 14.0 mph22.5 kmh 30.26 in1024.7 mb 0.00 in0.0 mm 0.00 in0.0 mm 0.00 in0.0 mm
09:56 PM 49.6°F9.8°C 36.7°F2.6°C 61% 5.0 mph NW8.0 kmh NW 14.0 mph22.5 kmh 30.26 in1024.7 mb 0.00 in0.0 mm 0.00 in0.0 mm 0.00 in0.0 mm
09:58 PM 49.5°F9.7°C 36.6°F2.6°C 61% 3.0 mph NW4.8 kmh NW 14.0 mph22.5 kmh 30.26 in1024.7 mb 0.00 in0.0 mm 0.00 in0.0 mm 0.00 in0.0 mm
10:00 PM 49.4°F9.7°C 36.5°F2.5°C 61% 8.0 mph NNW12.9 kmh NNW 14.0 mph22.5 kmh 30.26 in1024.7 mb 0.00 in0.0 mm 0.00 in0.0 mm 0.00 in0.0 mm
10:02 PM 49.3°F9.6°C 36.4°F2.4°C 61% 2.0 mph N3.2 kmh N 14.0 mph22.5 kmh 30.26 in1024.7 mb 0.00 in0.0 mm 0.00 in0.0 mm 0.00 in0.0 mm
10:04 PM 49.2°F9.6°C 36.3°F2.4°C 61% 3.0 mph N4.8 kmh N 9.0 mph14.5 kmh 30.26 in1024.7 mb 0.00 in0.0 mm 0.00 in0.0 mm 0.00 in0.0 mm
10:06 PM 49.2°F9.6°C 36.3°F2.4°C 61% 4.0 mph NNE6.4 kmh NNE 14.0 mph22.5 kmh 30.26 in1024.7 mb 0.00 in0.0 mm 0.00 in0.0 mm 0.00 in0.0 mm
10:08 PM 49.1°F9.5°C 36.3°F2.4°C 61% 9.0 mph N14.5 kmh N 14.0 mph22.5 kmh 30.26 in1024.7 mb 0.00 in0.0 mm 0.00 in0.0 mm 0.00 in0.0 mm
10:10 PM 49.1°F9.5°C 36.3°F2.4°C 61% 6.0 mph N9.7 kmh N 14.0 mph22.5 kmh 30.25 in1024.4 mb 0.00 in0.0 mm 0.00 in0.0 mm 0.00 in0.0 mm
10:12 PM 49.1°F9.5°C 36.3°F2.4°C 61% 4.0 mph N6.4 kmh N 14.0 mph22.5 kmh 30.26 in1024.7 mb 0.00 in0.0 mm 0.00 in0.0 mm 0.00 in0.0 mm
10:14 PM 49.0°F9.4°C 36.6°F2.6°C 62% 10.0 mph NNE16.1 kmh NNE 14.0 mph22.5 kmh 30.26 in1024.7 mb 0.00 in0.0 mm 0.00 in0.0 mm 0.00 in0.0 mm
10:16 PM 48.9°F9.4°C 36.5°F2.5°C 62% 5.0 mph N8.0 kmh N 14.0 mph22.5 kmh 30.26 in1024.7 mb 0.00 in0.0 mm 0.00 in0.0 mm 0.00 in0.0 mm
10:18 PM 48.8°F9.3°C 36.4°F2.4°C 62% 9.0 mph N14.5 kmh N 14.0 mph22.5 kmh 30.26 in1024.7 mb 0.00 in0.0 mm 0.00 in0.0 mm 0.00 in0.0 mm
10:20 PM 48.8°F9.3°C 36.4°F2.4°C 62% 11.0 mph NNE17.7 kmh NNE 14.0 mph22.5 kmh 30.26 in1024.7 mb 0.00 in0.0 mm 0.00 in0.0 mm 0.00 in0.0 mm
10:22 PM 48.6°F9.2°C 36.2°F2.3°C 62% 3.0 mph NNE4.8 kmh NNE 14.0 mph22.5 kmh 30.26 in1024.7 mb 0.00 in0.0 mm 0.00 in0.0 mm 0.00 in0.0 mm
10:24 PM 48.5°F9.2°C 36.1°F2.3°C 62% 8.0 mph NW12.9 kmh NW 14.0 mph22.5 kmh 30.26 in1024.7 mb 0.00 in0.0 mm 0.00 in0.0 mm 0.00 in0.0 mm
10:26 PM 48.4°F9.1°C 36.4°F2.4°C 63% 9.0 mph NNW14.5 kmh NNW 14.0 mph22.5 kmh 30.26 in1024.7 mb 0.00 in0.0 mm 0.00 in0.0 mm 0.00 in0.0 mm
10:28 PM 48.4°F9.1°C 36.4°F2.4°C 63% 4.0 mph N6.4 kmh N 14.0 mph22.5 kmh 30.26 in1024.7 mb 0.00 in0.0 mm 0.00 in0.0 mm 0.00 in0.0 mm
10:30 PM 48.2°F9.0°C 36.2°F2.3°C 63% 7.0 mph NNE11.3 kmh NNE 16.0 mph25.7 kmh 30.26 in1024.7 mb 0.00 in0.0 mm 0.00 in0.0 mm 0.00 in0.0 mm
10:32 PM 48.2°F9.0°C 36.2°F2.3°C 63% 2.0 mph NE3.2 kmh NE 16.0 mph25.7 kmh 30.26 in1024.7 mb 0.00 in0.0 mm 0.00 in0.0 mm 0.00 in0.0 mm
10:34 PM 48.1°F8.9°C 36.1°F2.3°C 63% 13.0 mph NE20.9 kmh NE 13.0 mph20.9 kmh 30.26 in1024.7 mb 0.00 in0.0 mm 0.00 in0.0 mm 0.00 in0.0 mm
10:36 PM 48.1°F8.9°C 36.1°F2.3°C 63% 4.0 mph NNE6.4 kmh NNE 13.0 mph20.9 kmh 30.26 in1024.7 mb 0.00 in0.0 mm 0.00 in0.0 mm 0.00 in0.0 mm
10:38 PM 48.0°F8.9°C 36.4°F2.4°C 64% 7.0 mph NNE11.3 kmh NNE 13.0 mph20.9 kmh 30.26 in1024.7 mb 0.00 in0.0 mm 0.00 in0.0 mm 0.00 in0.0 mm
10:40 PM 48.0°F8.9°C 36.4°F2.4°C 64% 8.0 mph NNW12.9 kmh NNW 13.0 mph20.9 kmh 30.26 in1024.7 mb 0.00 in0.0 mm 0.00 in0.0 mm 0.00 in0.0 mm
10:42 PM 47.9°F8.8°C 36.3°F2.4°C 64% 5.0 mph N8.0 kmh N 13.0 mph20.9 kmh 30.26 in1024.7 mb 0.00 in0.0 mm 0.00 in0.0 mm 0.00 in0.0 mm
10:44 PM 47.8°F8.8°C 36.2°F2.3°C 64% 5.0 mph N8.0 kmh N 13.0 mph20.9 kmh 30.26 in1024.7 mb 0.00 in0.0 mm 0.00 in0.0 mm 0.00 in0.0 mm
10:46 PM 47.7°F8.7°C 36.1°F2.3°C 64% 10.0 mph N16.1 kmh N 13.0 mph20.9 kmh 30.26 in1024.7 mb 0.00 in0.0 mm 0.00 in0.0 mm 0.00 in0.0 mm
10:48 PM 47.6°F8.7°C 36.0°F2.2°C 64% 3.0 mph NE4.8 kmh NE 13.0 mph20.9 kmh 30.26 in1024.7 mb 0.00 in0.0 mm 0.00 in0.0 mm 0.00 in0.0 mm
10:50 PM 47.6°F8.7°C 36.0°F2.2°C 64% 4.0 mph N6.4 kmh N 13.0 mph20.9 kmh 30.26 in1024.7 mb 0.00 in0.0 mm 0.00 in0.0 mm 0.00 in0.0 mm
10:52 PM 47.6°F8.7°C 36.0°F2.2°C 64% 4.0 mph N6.4 kmh N 13.0 mph20.9 kmh 30.26 in1024.7 mb 0.00 in0.0 mm 0.00 in0.0 mm 0.00 in0.0 mm
10:54 PM 47.5°F8.6°C 35.9°F2.2°C 64% 5.0 mph NE8.0 kmh NE 13.0 mph20.9 kmh 30.26 in1024.7 mb 0.00 in0.0 mm 0.00 in0.0 mm 0.00 in0.0 mm
10:56 PM 47.4°F8.6°C 36.2°F2.3°C 65% 8.0 mph N12.9 kmh N 13.0 mph20.9 kmh 30.26 in1024.7 mb 0.00 in0.0 mm 0.00 in0.0 mm 0.00 in0.0 mm
10:58 PM 47.3°F8.5°C 36.2°F2.3°C 65% 4.0 mph N6.4 kmh N 13.0 mph20.9 kmh 30.26 in1024.7 mb 0.00 in0.0 mm 0.00 in0.0 mm 0.00 in0.0 mm
11:00 PM 47.3°F8.5°C 36.2°F2.3°C 65% 8.0 mph N12.9 kmh N 13.0 mph20.9 kmh 30.26 in1024.7 mb 0.00 in0.0 mm 0.00 in0.0 mm 0.00 in0.0 mm
11:02 PM 47.2°F8.4°C 36.1°F2.3°C 65% 3.0 mph N4.8 kmh N 13.0 mph20.9 kmh 30.26 in1024.7 mb 0.00 in0.0 mm 0.00 in0.0 mm 0.00 in0.0 mm
11:03 PM 47.1°F8.4°C 36.0°F2.2°C 65% 5.0 mph N8.0 kmh N 11.0 mph17.7 kmh 30.26 in1024.7 mb 0.00 in0.0 mm 0.00 in0.0 mm 0.00 in0.0 mm
11:06 PM 47.1°F8.4°C 36.0°F2.2°C 65% 8.0 mph NNE12.9 kmh NNE 11.0 mph17.7 kmh 30.26 in1024.7 mb 0.00 in0.0 mm 0.00 in0.0 mm 0.00 in0.0 mm
11:08 PM 47.0°F8.3°C 35.9°F2.2°C 65% 4.0 mph NE6.4 kmh NE 11.0 mph17.7 kmh 30.26 in1024.7 mb 0.00 in0.0 mm 0.00 in0.0 mm 0.00 in0.0 mm
11:10 PM 46.9°F8.3°C 35.8°F2.1°C 65% 9.0 mph N14.5 kmh N 11.0 mph17.7 kmh 30.27 in1025.1 mb 0.00 in0.0 mm 0.00 in0.0 mm 0.00 in0.0 mm
11:12 PM 47.0°F8.3°C 36.3°F2.4°C 66% 6.0 mph N9.7 kmh N 11.0 mph17.7 kmh 30.27 in1025.1 mb 0.00 in0.0 mm 0.00 in0.0 mm 0.00 in0.0 mm
11:14 PM 46.8°F8.2°C 36.1°F2.3°C 66% 3.0 mph NNW4.8 kmh NNW 12.0 mph19.3 kmh 30.26 in1024.7 mb 0.00 in0.0 mm 0.00 in0.0 mm 0.00 in0.0 mm
11:16 PM 46.8°F8.2°C 36.1°F2.3°C 66% 9.0 mph NW14.5 kmh NW 12.0 mph19.3 kmh 30.26 in1024.7 mb 0.00 in0.0 mm 0.00 in0.0 mm 0.00 in0.0 mm
11:18 PM 46.7°F8.2°C 36.0°F2.2°C 66% 10.0 mph N16.1 kmh N 12.0 mph19.3 kmh 30.26 in1024.7 mb 0.00 in0.0 mm 0.00 in0.0 mm 0.00 in0.0 mm
11:20 PM 46.7°F8.2°C 36.0°F2.2°C 66% 5.0 mph NNW8.0 kmh NNW 12.0 mph19.3 kmh 30.26 in1024.7 mb 0.00 in0.0 mm 0.00 in0.0 mm 0.00 in0.0 mm
11:22 PM 46.7°F8.2°C 36.0°F2.2°C 66% 2.0 mph N3.2 kmh N 12.0 mph19.3 kmh 30.26 in1024.7 mb 0.00 in0.0 mm 0.00 in0.0 mm 0.00 in0.0 mm
11:24 PM 46.6°F8.1°C 35.9°F2.2°C 66% 5.0 mph N8.0 kmh N 12.0 mph19.3 kmh 30.26 in1024.7 mb 0.00 in0.0 mm 0.00 in0.0 mm 0.00 in0.0 mm
11:26 PM 46.5°F8.1°C 35.8°F2.1°C 66% 3.0 mph N4.8 kmh N 12.0 mph19.3 kmh 30.26 in1024.7 mb 0.00 in0.0 mm 0.00 in0.0 mm 0.00 in0.0 mm
11:27 PM 46.4°F8.0°C 35.7°F2.1°C 66% 9.0 mph N14.5 kmh N 12.0 mph19.3 kmh 30.26 in1024.7 mb 0.00 in0.0 mm 0.00 in0.0 mm 0.00 in0.0 mm
11:30 PM 46.4°F8.0°C 36.1°F2.3°C 67% 2.0 mph N3.2 kmh N 12.0 mph19.3 kmh 30.27 in1025.1 mb 0.00 in0.0 mm 0.00 in0.0 mm 0.00 in0.0 mm
11:32 PM 46.3°F7.9°C 36.0°F2.2°C 67% 5.0 mph N8.0 kmh N 12.0 mph19.3 kmh 30.27 in1025.1 mb 0.00 in0.0 mm 0.00 in0.0 mm 0.00 in0.0 mm
11:34 PM 46.2°F7.9°C 35.9°F2.2°C 67% 2.0 mph NNE3.2 kmh NNE 4.0 mph6.4 kmh 30.27 in1025.1 mb 0.00 in0.0 mm 0.00 in0.0 mm 0.00 in0.0 mm
11:36 PM 46.2°F7.9°C 35.9°F2.2°C 67% 5.0 mph N8.0 kmh N 6.0 mph9.7 kmh 30.27 in1025.1 mb 0.00 in0.0 mm 0.00 in0.0 mm 0.00 in0.0 mm
11:38 PM 46.1°F7.8°C 35.8°F2.1°C 67% 8.0 mph N12.9 kmh N 8.0 mph12.9 kmh 30.27 in1025.1 mb 0.00 in0.0 mm 0.00 in0.0 mm 0.00 in0.0 mm
11:40 PM 46.1°F7.8°C 35.8°F2.1°C 67% 9.0 mph NNW14.5 kmh NNW 9.0 mph14.5 kmh 30.27 in1025.1 mb 0.00 in0.0 mm 0.00 in0.0 mm 0.00 in0.0 mm
11:42 PM 46.0°F7.8°C 35.7°F2.1°C 67% 6.0 mph N9.7 kmh N 9.0 mph14.5 kmh 30.27 in1025.1 mb 0.00 in0.0 mm 0.00 in0.0 mm 0.00 in0.0 mm
11:44 PM 46.0°F7.8°C 35.7°F2.1°C 67% 2.0 mph N3.2 kmh N 9.0 mph14.5 kmh 30.26 in1024.7 mb 0.00 in0.0 mm 0.00 in0.0 mm 0.00 in0.0 mm
11:46 PM 45.9°F7.7°C 35.6°F2.0°C 67% 4.0 mph N6.4 kmh N 9.0 mph14.5 kmh 30.26 in1024.7 mb 0.00 in0.0 mm 0.00 in0.0 mm 0.00 in0.0 mm
11:48 PM 45.9°F7.7°C 35.6°F2.0°C 67% 2.0 mph NW3.2 kmh NW 9.0 mph14.5 kmh 30.26 in1024.7 mb 0.00 in0.0 mm 0.00 in0.0 mm 0.00 in0.0 mm
11:50 PM 45.8°F7.7°C 35.5°F1.9°C 67% 3.0 mph N4.8 kmh N 9.0 mph14.5 kmh 30.26 in1024.7 mb 0.00 in0.0 mm 0.00 in0.0 mm 0.00 in0.0 mm
11:52 PM 45.7°F7.6°C 35.4°F1.9°C 67% 4.0 mph NNE6.4 kmh NNE 9.0 mph14.5 kmh 30.26 in1024.7 mb 0.00 in0.0 mm 0.00 in0.0 mm 0.00 in0.0 mm
11:54 PM 45.7°F7.6°C 35.8°F2.1°C 68% 5.0 mph N8.0 kmh N 9.0 mph14.5 kmh 30.26 in1024.7 mb 0.00 in0.0 mm 0.00 in0.0 mm 0.00 in0.0 mm
11:56 PM 45.6°F7.6°C 35.7°F2.1°C 68% 4.0 mph NNE6.4 kmh NNE 10.0 mph16.1 kmh 30.26 in1024.7 mb 0.00 in0.0 mm 0.00 in0.0 mm 0.00 in0.0 mm
11:58 PM 45.6°F7.6°C 35.7°F2.1°C 68% 4.0 mph N6.4 kmh N 10.0 mph16.1 kmh 30.26 in1024.7 mb 0.00 in0.0 mm 0.00 in0.0 mm 0.00 in0.0 mm